<?xml version="1.0" encoding="UTF-8" standalone="no" ?>
<gpx xmlns="http://www.topografix.com/GPX/1/1" xmlns:xsi="http://www.w3.org/2001/XMLSchema-instance" xsi:schemaLocation="http://www.topografix.com/GPX/1/1 http://www.topografix.com/GPX/1/1/gpx.xsd" version="1.1" creator="VisuGPX - https://www.visugpx.com">
  <metadata>
    <name>Raid 21 PAPh</name>
    <desc><![CDATA[brouillon pour Raid ]]></desc>
  </metadata>
  <trk>
    <name><![CDATA[Montagnes russes en Périgord Noir]]></name>
    <trkseg>
      <trkpt lat="44.9241" lon="1.18885">
        <ele>286.799377</ele>
        <time>2014-04-19T10:49:29Z</time>
      </trkpt>
      <trkpt lat="44.92426" lon="1.18807">
        <ele>291.271729</ele>
        <time>2014-04-19T10:50:09Z</time>
      </trkpt>
      <trkpt lat="44.92436" lon="1.18778">
        <ele>292.92688</ele>
        <time>2014-04-19T10:50:17Z</time>
      </trkpt>
      <trkpt lat="44.92436" lon="1.18762">
        <ele>294.384247</ele>
        <time>2014-04-19T10:50:26Z</time>
      </trkpt>
      <trkpt lat="44.92448" lon="1.18683">
        <ele>301.612885</ele>
        <time>2014-04-19T10:50:59Z</time>
      </trkpt>
      <trkpt lat="44.92452" lon="1.18606">
        <ele>304.785675</ele>
        <time>2014-04-19T10:51:35Z</time>
      </trkpt>
      <trkpt lat="44.92465" lon="1.18506">
        <ele>304.574127</ele>
        <time>2014-04-19T10:52:12Z</time>
      </trkpt>
      <trkpt lat="44.92487" lon="1.18408">
        <ele>305.237152</ele>
        <time>2014-04-19T10:52:31Z</time>
      </trkpt>
      <trkpt lat="44.92519" lon="1.18192">
        <ele>308.518707</ele>
        <time>2014-04-19T10:53:21Z</time>
      </trkpt>
      <trkpt lat="44.92517" lon="1.18144">
        <ele>308.232422</ele>
        <time>2014-04-19T10:53:33Z</time>
      </trkpt>
      <trkpt lat="44.92505" lon="1.18137">
        <ele>308.094666</ele>
        <time>2014-04-19T10:53:38Z</time>
      </trkpt>
      <trkpt lat="44.92495" lon="1.18126">
        <ele>308.010834</ele>
        <time>2014-04-19T10:53:43Z</time>
      </trkpt>
      <trkpt lat="44.92492" lon="1.18123">
        <ele>308.001984</ele>
        <time>2014-04-19T10:53:44Z</time>
      </trkpt>
      <trkpt lat="44.92477" lon="1.18103">
        <ele>307.363129</ele>
        <time>2014-04-19T10:53:49Z</time>
      </trkpt>
      <trkpt lat="44.92451" lon="1.18028">
        <ele>305.980011</ele>
        <time>2014-04-19T10:54:02Z</time>
      </trkpt>
      <trkpt lat="44.92449" lon="1.18015">
        <ele>305.665619</ele>
        <time>2014-04-19T10:54:04Z</time>
      </trkpt>
      <trkpt lat="44.92444" lon="1.17935">
        <ele>302.309082</ele>
        <time>2014-04-19T10:54:14Z</time>
      </trkpt>
      <trkpt lat="44.92438" lon="1.17865">
        <ele>296.434998</ele>
        <time>2014-04-19T10:54:24Z</time>
      </trkpt>
      <trkpt lat="44.9244" lon="1.17837">
        <ele>294.413116</ele>
        <time>2014-04-19T10:54:28Z</time>
      </trkpt>
      <trkpt lat="44.9244" lon="1.17808">
        <ele>292.121246</ele>
        <time>2014-04-19T10:54:32Z</time>
      </trkpt>
      <trkpt lat="44.92436" lon="1.177">
        <ele>286.301239</ele>
        <time>2014-04-19T10:54:46Z</time>
      </trkpt>
      <trkpt lat="44.9244" lon="1.17641">
        <ele>284.868256</ele>
        <time>2014-04-19T10:56:03Z</time>
      </trkpt>
      <trkpt lat="44.92677" lon="1.1763">
        <ele>261.419983</ele>
        <time>2014-04-19T10:57:03Z</time>
      </trkpt>
      <trkpt lat="44.92707" lon="1.17612">
        <ele>256.787506</ele>
        <time>2014-04-19T10:57:13Z</time>
      </trkpt>
      <trkpt lat="44.92748" lon="1.17588">
        <ele>252.226685</ele>
        <time>2014-04-19T10:57:21Z</time>
      </trkpt>
      <trkpt lat="44.92804" lon="1.17556">
        <ele>250.020126</ele>
        <time>2014-04-19T10:57:30Z</time>
      </trkpt>
      <trkpt lat="44.92854" lon="1.17501">
        <ele>245.893539</ele>
        <time>2014-04-19T10:57:43Z</time>
      </trkpt>
      <trkpt lat="44.92767" lon="1.17473">
        <ele>235.462769</ele>
        <time>2014-04-19T10:58:01Z</time>
      </trkpt>
      <trkpt lat="44.92732" lon="1.17442">
        <ele>232.500565</ele>
        <time>2014-04-19T10:58:06Z</time>
      </trkpt>
      <trkpt lat="44.92726" lon="1.17425">
        <ele>231.646835</ele>
        <time>2014-04-19T10:58:08Z</time>
      </trkpt>
      <trkpt lat="44.92712" lon="1.17307">
        <ele>234.717468</ele>
        <time>2014-04-19T10:58:31Z</time>
      </trkpt>
      <trkpt lat="44.92723" lon="1.17262">
        <ele>234.387497</ele>
        <time>2014-04-19T10:58:42Z</time>
      </trkpt>
      <trkpt lat="44.92689" lon="1.1717">
        <ele>238.660248</ele>
        <time>2014-04-19T10:59:07Z</time>
      </trkpt>
      <trkpt lat="44.92607" lon="1.16989">
        <ele>234.226135</ele>
        <time>2014-04-19T10:59:35Z</time>
      </trkpt>
      <trkpt lat="44.92606" lon="1.16886">
        <ele>234.732361</ele>
        <time>2014-04-19T11:00:03Z</time>
      </trkpt>
      <trkpt lat="44.92522" lon="1.16761">
        <ele>244.076797</ele>
        <time>2014-04-19T11:01:08Z</time>
      </trkpt>
      <trkpt lat="44.92503" lon="1.16723">
        <ele>243.302017</ele>
        <time>2014-04-19T11:01:19Z</time>
      </trkpt>
      <trkpt lat="44.92455" lon="1.16616">
        <ele>237.391159</ele>
        <time>2014-04-19T11:01:35Z</time>
      </trkpt>
      <trkpt lat="44.92447" lon="1.16618">
        <ele>237.831207</ele>
        <time>2014-04-19T11:01:37Z</time>
      </trkpt>
      <trkpt lat="44.92418" lon="1.16626">
        <ele>237.472397</ele>
        <time>2014-04-19T11:01:44Z</time>
      </trkpt>
      <trkpt lat="44.92398" lon="1.16624">
        <ele>234.772003</ele>
        <time>2014-04-19T11:01:48Z</time>
      </trkpt>
      <trkpt lat="44.92391" lon="1.16634">
        <ele>234.335236</ele>
        <time>2014-04-19T11:01:51Z</time>
      </trkpt>
      <trkpt lat="44.92389" lon="1.16643">
        <ele>234.599762</ele>
        <time>2014-04-19T11:01:53Z</time>
      </trkpt>
      <trkpt lat="44.9238" lon="1.16643">
        <ele>232.822571</ele>
        <time>2014-04-19T11:01:56Z</time>
      </trkpt>
      <trkpt lat="44.92373" lon="1.16619">
        <ele>230.382019</ele>
        <time>2014-04-19T11:01:59Z</time>
      </trkpt>
      <trkpt lat="44.92366" lon="1.16589">
        <ele>228.235504</ele>
        <time>2014-04-19T11:02:02Z</time>
      </trkpt>
      <trkpt lat="44.92334" lon="1.16504">
        <ele>223.685577</ele>
        <time>2014-04-19T11:02:09Z</time>
      </trkpt>
      <trkpt lat="44.92253" lon="1.16239">
        <ele>214.341492</ele>
        <time>2014-04-19T11:02:32Z</time>
      </trkpt>
      <trkpt lat="44.92227" lon="1.16089">
        <ele>212.734116</ele>
        <time>2014-04-19T11:03:19Z</time>
      </trkpt>
      <trkpt lat="44.92199" lon="1.16017">
        <ele>212.860931</ele>
        <time>2014-04-19T11:03:32Z</time>
      </trkpt>
      <trkpt lat="44.92139" lon="1.15951">
        <ele>214.981247</ele>
        <time>2014-04-19T11:03:49Z</time>
      </trkpt>
      <trkpt lat="44.92105" lon="1.15796">
        <ele>217.429474</ele>
        <time>2014-04-19T11:04:16Z</time>
      </trkpt>
      <trkpt lat="44.92068" lon="1.15706">
        <ele>214.692123</ele>
        <time>2014-04-19T11:04:31Z</time>
      </trkpt>
      <trkpt lat="44.92008" lon="1.15587">
        <ele>207.084854</ele>
        <time>2014-04-19T11:04:45Z</time>
      </trkpt>
      <trkpt lat="44.9192" lon="1.15407">
        <ele>204.963074</ele>
        <time>2014-04-19T11:05:06Z</time>
      </trkpt>
      <trkpt lat="44.91807" lon="1.15107">
        <ele>220.625076</ele>
        <time>2014-04-19T11:07:03Z</time>
      </trkpt>
      <trkpt lat="44.91765" lon="1.14991">
        <ele>226.30513</ele>
        <time>2014-04-19T11:07:41Z</time>
      </trkpt>
      <trkpt lat="44.91761" lon="1.14977">
        <ele>227.171082</ele>
        <time>2014-04-19T11:07:45Z</time>
      </trkpt>
      <trkpt lat="44.9176" lon="1.1474">
        <ele>228.891693</ele>
        <time>2014-04-19T11:08:44Z</time>
      </trkpt>
      <trkpt lat="44.91755" lon="1.14705">
        <ele>228.94252</ele>
        <time>2014-04-19T11:08:51Z</time>
      </trkpt>
      <trkpt lat="44.91752" lon="1.14679">
        <ele>228.55452</ele>
        <time>2014-04-19T11:08:55Z</time>
      </trkpt>
      <trkpt lat="44.91752" lon="1.14639">
        <ele>226.974304</ele>
        <time>2014-04-19T11:08:59Z</time>
      </trkpt>
      <trkpt lat="44.91754" lon="1.14503">
        <ele>224.842422</ele>
        <time>2014-04-19T11:09:20Z</time>
      </trkpt>
      <trkpt lat="44.91758" lon="1.14464">
        <ele>227.031357</ele>
        <time>2014-04-19T11:09:37Z</time>
      </trkpt>
      <trkpt lat="44.91777" lon="1.14441">
        <ele>227.264969</ele>
        <time>2014-04-19T11:09:52Z</time>
      </trkpt>
      <trkpt lat="44.91784" lon="1.14434">
        <ele>228.213043</ele>
        <time>2014-04-19T11:10:01Z</time>
      </trkpt>
      <trkpt lat="44.91791" lon="1.14429">
        <ele>228.552597</ele>
        <time>2014-04-19T11:10:06Z</time>
      </trkpt>
      <trkpt lat="44.91803" lon="1.14407">
        <ele>231.165222</ele>
        <time>2014-04-19T11:10:28Z</time>
      </trkpt>
      <trkpt lat="44.91785" lon="1.1438">
        <ele>236.343124</ele>
        <time>2014-04-19T11:10:55Z</time>
      </trkpt>
      <trkpt lat="44.91782" lon="1.1434">
        <ele>239.80188</ele>
        <time>2014-04-19T11:11:16Z</time>
      </trkpt>
      <trkpt lat="44.91783" lon="1.14326">
        <ele>240.442581</ele>
        <time>2014-04-19T11:11:23Z</time>
      </trkpt>
      <trkpt lat="44.91782" lon="1.14298">
        <ele>241.696686</ele>
        <time>2014-04-19T11:11:35Z</time>
      </trkpt>
      <trkpt lat="44.91822" lon="1.14239">
        <ele>241.25415</ele>
        <time>2014-04-19T11:12:13Z</time>
      </trkpt>
      <trkpt lat="44.91909" lon="1.1415">
        <ele>241.553375</ele>
        <time>2014-04-19T11:12:45Z</time>
      </trkpt>
      <trkpt lat="44.92041" lon="1.14055">
        <ele>238.136246</ele>
        <time>2014-04-19T11:13:09Z</time>
      </trkpt>
      <trkpt lat="44.921" lon="1.14061">
        <ele>232.632507</ele>
        <time>2014-04-19T11:13:17Z</time>
      </trkpt>
      <trkpt lat="44.92183" lon="1.14015">
        <ele>228.485001</ele>
        <time>2014-04-19T11:13:28Z</time>
      </trkpt>
      <trkpt lat="44.92248" lon="1.14027">
        <ele>224.379044</ele>
        <time>2014-04-19T11:13:47Z</time>
      </trkpt>
      <trkpt lat="44.92312" lon="1.14052">
        <ele>216.493408</ele>
        <time>2014-04-19T11:13:59Z</time>
      </trkpt>
      <trkpt lat="44.92388" lon="1.14032">
        <ele>208.986908</ele>
        <time>2014-04-19T11:14:09Z</time>
      </trkpt>
      <trkpt lat="44.92516" lon="1.14042">
        <ele>197.793747</ele>
        <time>2014-04-19T11:14:25Z</time>
      </trkpt>
      <trkpt lat="44.92546" lon="1.13899">
        <ele>200.755814</ele>
        <time>2014-04-19T11:14:47Z</time>
      </trkpt>
      <trkpt lat="44.92609" lon="1.13852">
        <ele>199.78688</ele>
        <time>2014-04-19T11:15:04Z</time>
      </trkpt>
      <trkpt lat="44.92662" lon="1.13824">
        <ele>197.39859</ele>
        <time>2014-04-19T11:16:58Z</time>
      </trkpt>
      <trkpt lat="44.92669" lon="1.13764">
        <ele>200.181152</ele>
        <time>2014-04-19T11:17:52Z</time>
      </trkpt>
      <trkpt lat="44.92687" lon="1.1372">
        <ele>200.766983</ele>
        <time>2014-04-19T11:18:03Z</time>
      </trkpt>
      <trkpt lat="44.9274" lon="1.13684">
        <ele>197.843124</ele>
        <time>2014-04-19T11:26:06Z</time>
      </trkpt>
      <trkpt lat="44.92785" lon="1.13634">
        <ele>193.636246</ele>
        <time>2014-04-19T11:26:18Z</time>
      </trkpt>
      <trkpt lat="44.92803" lon="1.13587">
        <ele>191.435242</ele>
        <time>2014-04-19T11:26:24Z</time>
      </trkpt>
      <trkpt lat="44.92848" lon="1.13508">
        <ele>184.270004</ele>
        <time>2014-04-19T11:26:36Z</time>
      </trkpt>
      <trkpt lat="44.92889" lon="1.13471">
        <ele>177.184525</ele>
        <time>2014-04-19T11:26:45Z</time>
      </trkpt>
      <trkpt lat="44.92978" lon="1.13466">
        <ele>159.483627</ele>
        <time>2014-04-19T11:27:09Z</time>
      </trkpt>
      <trkpt lat="44.93032" lon="1.13587">
        <ele>151.845169</ele>
        <time>2014-04-19T11:27:37Z</time>
      </trkpt>
      <trkpt lat="44.93029" lon="1.13394">
        <ele>144.460785</ele>
        <time>2014-04-19T11:28:45Z</time>
      </trkpt>
      <trkpt lat="44.93088" lon="1.13328">
        <ele>149.234894</ele>
        <time>2014-04-19T11:29:28Z</time>
      </trkpt>
      <trkpt lat="44.93088" lon="1.1332">
        <ele>149.096481</ele>
        <time>2014-04-19T11:29:33Z</time>
      </trkpt>
      <trkpt lat="44.93077" lon="1.13299">
        <ele>145.808044</ele>
        <time>2014-04-19T11:29:49Z</time>
      </trkpt>
      <trkpt lat="44.93" lon="1.13208">
        <ele>149.35228</ele>
        <time>2014-04-19T11:30:26Z</time>
      </trkpt>
      <trkpt lat="44.92976" lon="1.13177">
        <ele>147.00444</ele>
        <time>2014-04-19T11:30:36Z</time>
      </trkpt>
      <trkpt lat="44.9297" lon="1.13072">
        <ele>147.756805</ele>
        <time>2014-04-19T11:30:53Z</time>
      </trkpt>
      <trkpt lat="44.92949" lon="1.13023">
        <ele>144.195129</ele>
        <time>2014-04-19T11:31:12Z</time>
      </trkpt>
      <trkpt lat="44.92946" lon="1.12995">
        <ele>144.982529</ele>
        <time>2014-04-19T11:31:26Z</time>
      </trkpt>
      <trkpt lat="44.92927" lon="1.12963">
        <ele>145.608948</ele>
        <time>2014-04-19T11:31:42Z</time>
      </trkpt>
      <trkpt lat="44.92816" lon="1.12864">
        <ele>143.333755</ele>
        <time>2014-04-19T11:34:02Z</time>
      </trkpt>
      <trkpt lat="44.92784" lon="1.12787">
        <ele>145.46138</ele>
        <time>2014-04-19T11:34:43Z</time>
      </trkpt>
      <trkpt lat="44.92788" lon="1.1274">
        <ele>150.825134</ele>
        <time>2014-04-19T11:34:59Z</time>
      </trkpt>
      <trkpt lat="44.92784" lon="1.12733">
        <ele>150.376175</ele>
        <time>2014-04-19T11:35:02Z</time>
      </trkpt>
      <trkpt lat="44.92744" lon="1.12661">
        <ele>145.126144</ele>
        <time>2014-04-19T11:35:26Z</time>
      </trkpt>
      <trkpt lat="44.92719" lon="1.12551">
        <ele>141.778076</ele>
        <time>2014-04-19T11:35:50Z</time>
      </trkpt>
      <trkpt lat="44.92837" lon="1.12457">
        <ele>159.452545</ele>
        <time>2014-04-19T11:36:58Z</time>
      </trkpt>
      <trkpt lat="44.92891" lon="1.12375">
        <ele>165.155441</ele>
        <time>2014-04-19T11:37:48Z</time>
      </trkpt>
      <trkpt lat="44.92924" lon="1.12367">
        <ele>167.175003</ele>
        <time>2014-04-19T11:38:08Z</time>
      </trkpt>
      <trkpt lat="44.92932" lon="1.12393">
        <ele>166.396881</ele>
        <time>2014-04-19T11:38:20Z</time>
      </trkpt>
      <trkpt lat="44.92898" lon="1.12483">
        <ele>173.952469</ele>
        <time>2014-04-19T11:39:14Z</time>
      </trkpt>
      <trkpt lat="44.92892" lon="1.12504">
        <ele>176.335968</ele>
        <time>2014-04-19T11:39:27Z</time>
      </trkpt>
      <trkpt lat="44.92887" lon="1.12587">
        <ele>182.963226</ele>
        <time>2014-04-19T11:40:08Z</time>
      </trkpt>
      <trkpt lat="44.9292" lon="1.12612">
        <ele>185.189758</ele>
        <time>2014-04-19T11:40:37Z</time>
      </trkpt>
      <trkpt lat="44.9296" lon="1.12582">
        <ele>187.509369</ele>
        <time>2014-04-19T11:41:08Z</time>
      </trkpt>
      <trkpt lat="44.92981" lon="1.12587">
        <ele>188.893219</ele>
        <time>2014-04-19T11:41:20Z</time>
      </trkpt>
      <trkpt lat="44.93016" lon="1.12606">
        <ele>192.414413</ele>
        <time>2014-04-19T11:41:44Z</time>
      </trkpt>
      <trkpt lat="44.93078" lon="1.12643">
        <ele>200.159058</ele>
        <time>2014-04-19T11:42:29Z</time>
      </trkpt>
      <trkpt lat="44.93125" lon="1.12698">
        <ele>206.821243</ele>
        <time>2014-04-19T11:43:11Z</time>
      </trkpt>
      <trkpt lat="44.93191" lon="1.12688">
        <ele>209.971008</ele>
        <time>2014-04-19T11:43:45Z</time>
      </trkpt>
      <trkpt lat="44.93239" lon="1.12619">
        <ele>207.907532</ele>
        <time>2014-04-19T11:44:11Z</time>
      </trkpt>
      <trkpt lat="44.93302" lon="1.12572">
        <ele>210.732498</ele>
        <time>2014-04-19T11:44:39Z</time>
      </trkpt>
      <trkpt lat="44.93333" lon="1.12572">
        <ele>212.770004</ele>
        <time>2014-04-19T11:45:00Z</time>
      </trkpt>
      <trkpt lat="44.93365" lon="1.12573">
        <ele>213.567505</ele>
        <time>2014-04-19T11:45:21Z</time>
      </trkpt>
      <trkpt lat="44.93395" lon="1.12571">
        <ele>213.692505</ele>
        <time>2014-04-19T11:45:35Z</time>
      </trkpt>
      <trkpt lat="44.93424" lon="1.12554">
        <ele>212.5811</ele>
        <time>2014-04-19T11:45:41Z</time>
      </trkpt>
      <trkpt lat="44.9352" lon="1.12496">
        <ele>207.516983</ele>
        <time>2014-04-19T11:45:58Z</time>
      </trkpt>
      <trkpt lat="44.93621" lon="1.12679">
        <ele>219.373825</ele>
        <time>2014-04-19T11:47:09Z</time>
      </trkpt>
      <trkpt lat="44.9364" lon="1.12683">
        <ele>221.117737</ele>
        <time>2014-04-19T11:47:23Z</time>
      </trkpt>
      <trkpt lat="44.93787" lon="1.12506">
        <ele>211.327499</ele>
        <time>2014-04-19T11:48:05Z</time>
      </trkpt>
      <trkpt lat="44.93864" lon="1.12464">
        <ele>210.497498</ele>
        <time>2014-04-19T11:48:23Z</time>
      </trkpt>
      <trkpt lat="44.93917" lon="1.12418">
        <ele>208.191895</ele>
        <time>2014-04-19T11:48:35Z</time>
      </trkpt>
      <trkpt lat="44.93926" lon="1.1239">
        <ele>206.717651</ele>
        <time>2014-04-19T11:48:40Z</time>
      </trkpt>
      <trkpt lat="44.93913" lon="1.12367">
        <ele>205.519241</ele>
        <time>2014-04-19T11:48:45Z</time>
      </trkpt>
      <trkpt lat="44.93897" lon="1.12351">
        <ele>203.928513</ele>
        <time>2014-04-19T11:48:48Z</time>
      </trkpt>
      <trkpt lat="44.93851" lon="1.12288">
        <ele>196.486252</ele>
        <time>2014-04-19T11:48:55Z</time>
      </trkpt>
      <trkpt lat="44.93815" lon="1.12237">
        <ele>190.168259</ele>
        <time>2014-04-19T11:49:00Z</time>
      </trkpt>
      <trkpt lat="44.93797" lon="1.12201">
        <ele>186.85318</ele>
        <time>2014-04-19T11:49:03Z</time>
      </trkpt>
      <trkpt lat="44.93728" lon="1.11993">
        <ele>189.804993</ele>
        <time>2014-04-19T11:49:29Z</time>
      </trkpt>
      <trkpt lat="44.93734" lon="1.11976">
        <ele>189.467972</ele>
        <time>2014-04-19T11:49:37Z</time>
      </trkpt>
      <trkpt lat="44.93725" lon="1.1199">
        <ele>190.389999</ele>
        <time>2014-04-19T11:49:49Z</time>
      </trkpt>
      <trkpt lat="44.9369" lon="1.11944">
        <ele>197.107285</ele>
        <time>2014-04-19T11:50:30Z</time>
      </trkpt>
      <trkpt lat="44.93638" lon="1.11904">
        <ele>204.719849</ele>
        <time>2014-04-19T11:51:17Z</time>
      </trkpt>
      <trkpt lat="44.93578" lon="1.11852">
        <ele>214.486877</ele>
        <time>2014-04-19T11:52:18Z</time>
      </trkpt>
      <trkpt lat="44.93573" lon="1.11839">
        <ele>215.65062</ele>
        <time>2014-04-19T11:52:27Z</time>
      </trkpt>
      <trkpt lat="44.93566" lon="1.1177">
        <ele>217.107849</ele>
        <time>2014-04-19T11:52:57Z</time>
      </trkpt>
      <trkpt lat="44.93546" lon="1.11704">
        <ele>214.156647</ele>
        <time>2014-04-19T11:53:14Z</time>
      </trkpt>
      <trkpt lat="44.93523" lon="1.11673">
        <ele>209.523102</ele>
        <time>2014-04-19T11:53:25Z</time>
      </trkpt>
      <trkpt lat="44.93483" lon="1.1161">
        <ele>202.657501</ele>
        <time>2014-04-19T11:53:44Z</time>
      </trkpt>
      <trkpt lat="44.93457" lon="1.11535">
        <ele>199.374496</ele>
        <time>2014-04-19T11:54:04Z</time>
      </trkpt>
      <trkpt lat="44.93455" lon="1.1153">
        <ele>199.227249</ele>
        <time>2014-04-19T11:54:06Z</time>
      </trkpt>
      <trkpt lat="44.93393" lon="1.11456">
        <ele>201.921158</ele>
        <time>2014-04-19T11:54:41Z</time>
      </trkpt>
      <trkpt lat="44.93348" lon="1.11371">
        <ele>208.212234</ele>
        <time>2014-04-19T11:55:37Z</time>
      </trkpt>
      <trkpt lat="44.93259" lon="1.11324">
        <ele>210.077698</ele>
        <time>2014-04-19T11:56:14Z</time>
      </trkpt>
      <trkpt lat="44.93191" lon="1.11273">
        <ele>208.095001</ele>
        <time>2014-04-19T11:56:39Z</time>
      </trkpt>
      <trkpt lat="44.93141" lon="1.11195">
        <ele>210.120316</ele>
        <time>2014-04-19T11:57:05Z</time>
      </trkpt>
      <trkpt lat="44.93149" lon="1.11189">
        <ele>208.950806</ele>
        <time>2014-04-19T11:57:20Z</time>
      </trkpt>
      <trkpt lat="44.93195" lon="1.11161">
        <ele>202.162796</ele>
        <time>2014-04-19T11:57:30Z</time>
      </trkpt>
      <trkpt lat="44.9339" lon="1.10973">
        <ele>186.059326</ele>
        <time>2014-04-19T11:57:56Z</time>
      </trkpt>
      <trkpt lat="44.93473" lon="1.10929">
        <ele>183.613754</ele>
        <time>2014-04-19T11:58:06Z</time>
      </trkpt>
      <trkpt lat="44.9355" lon="1.10914">
        <ele>181.039413</ele>
        <time>2014-04-19T11:58:18Z</time>
      </trkpt>
      <trkpt lat="44.93617" lon="1.1085">
        <ele>181.952377</ele>
        <time>2014-04-19T11:58:40Z</time>
      </trkpt>
      <trkpt lat="44.93658" lon="1.10847">
        <ele>176.365723</ele>
        <time>2014-04-19T11:58:49Z</time>
      </trkpt>
      <trkpt lat="44.93752" lon="1.10698">
        <ele>168.493225</ele>
        <time>2014-04-19T11:59:12Z</time>
      </trkpt>
      <trkpt lat="44.93768" lon="1.10689">
        <ele>167.316406</ele>
        <time>2014-04-19T11:59:16Z</time>
      </trkpt>
      <trkpt lat="44.93771" lon="1.10684">
        <ele>167.223099</ele>
        <time>2014-04-19T11:59:18Z</time>
      </trkpt>
      <trkpt lat="44.93794" lon="1.1066">
        <ele>162.482162</ele>
        <time>2014-04-19T11:59:27Z</time>
      </trkpt>
      <trkpt lat="44.93819" lon="1.10601">
        <ele>149.632935</ele>
        <time>2014-04-19T11:59:44Z</time>
      </trkpt>
      <trkpt lat="44.93899" lon="1.1062">
        <ele>129.970474</ele>
        <time>2014-04-19T12:00:04Z</time>
      </trkpt>
      <trkpt lat="44.9391" lon="1.10662">
        <ele>132.676895</ele>
        <time>2014-04-19T12:00:56Z</time>
      </trkpt>
      <trkpt lat="44.93954" lon="1.10633">
        <ele>134.856857</ele>
        <time>2014-04-19T12:01:12Z</time>
      </trkpt>
      <trkpt lat="44.93982" lon="1.10449">
        <ele>120.027077</ele>
        <time>2014-04-19T12:02:10Z</time>
      </trkpt>
      <trkpt lat="44.93999" lon="1.1043">
        <ele>119.530205</ele>
        <time>2014-04-19T12:02:15Z</time>
      </trkpt>
      <trkpt lat="44.94017" lon="1.10402">
        <ele>120.042213</ele>
        <time>2014-04-19T12:02:20Z</time>
      </trkpt>
      <trkpt lat="44.94042" lon="1.10364">
        <ele>117.805054</ele>
        <time>2014-04-19T12:02:27Z</time>
      </trkpt>
      <trkpt lat="44.94136" lon="1.10262">
        <ele>115.778183</ele>
        <time>2014-04-19T12:02:53Z</time>
      </trkpt>
      <trkpt lat="44.94173" lon="1.10261">
        <ele>109.063148</ele>
        <time>2014-04-19T12:03:37Z</time>
      </trkpt>
      <trkpt lat="44.94103" lon="1.10308">
        <ele>115.440475</ele>
        <time>2014-04-19T12:04:38Z</time>
      </trkpt>
      <trkpt lat="44.93987" lon="1.10445">
        <ele>120.168098</ele>
        <time>2014-04-19T12:06:24Z</time>
      </trkpt>
      <trkpt lat="44.93968" lon="1.10452">
        <ele>120.517723</ele>
        <time>2014-04-19T12:06:36Z</time>
      </trkpt>
      <trkpt lat="44.93867" lon="1.10412">
        <ele>130.676651</ele>
        <time>2014-04-19T12:07:57Z</time>
      </trkpt>
      <trkpt lat="44.93914" lon="1.10375">
        <ele>136.500763</ele>
        <time>2014-04-19T12:09:24Z</time>
      </trkpt>
      <trkpt lat="44.93929" lon="1.10366">
        <ele>137.694565</ele>
        <time>2014-04-19T12:09:35Z</time>
      </trkpt>
      <trkpt lat="44.93938" lon="1.1036">
        <ele>138.329025</ele>
        <time>2014-04-19T12:09:42Z</time>
      </trkpt>
      <trkpt lat="44.93941" lon="1.10357">
        <ele>138.495102</ele>
        <time>2014-04-19T12:09:44Z</time>
      </trkpt>
      <trkpt lat="44.93945" lon="1.10353">
        <ele>138.545471</ele>
        <time>2014-04-19T12:09:47Z</time>
      </trkpt>
      <trkpt lat="44.93969" lon="1.10325">
        <ele>139.43988</ele>
        <time>2014-04-19T12:10:04Z</time>
      </trkpt>
      <trkpt lat="44.93988" lon="1.10267">
        <ele>143.298767</ele>
        <time>2014-04-19T12:10:34Z</time>
      </trkpt>
      <trkpt lat="44.93976" lon="1.10248">
        <ele>148.144455</ele>
        <time>2014-04-19T12:10:52Z</time>
      </trkpt>
      <trkpt lat="44.93946" lon="1.10252">
        <ele>154.681412</ele>
        <time>2014-04-19T12:11:28Z</time>
      </trkpt>
      <trkpt lat="44.93908" lon="1.10259">
        <ele>159.714508</ele>
        <time>2014-04-19T12:12:04Z</time>
      </trkpt>
      <trkpt lat="44.9389" lon="1.10216">
        <ele>165.279999</ele>
        <time>2014-04-19T12:12:45Z</time>
      </trkpt>
      <trkpt lat="44.93886" lon="1.1021">
        <ele>165.732498</ele>
        <time>2014-04-19T12:12:49Z</time>
      </trkpt>
      <trkpt lat="44.93854" lon="1.10049">
        <ele>177.42688</ele>
        <time>2014-04-19T12:14:19Z</time>
      </trkpt>
      <trkpt lat="44.93755" lon="1.10081">
        <ele>179.033463</ele>
        <time>2014-04-19T12:15:28Z</time>
      </trkpt>
      <trkpt lat="44.93676" lon="1.10086">
        <ele>182.104996</ele>
        <time>2014-04-19T12:16:08Z</time>
      </trkpt>
      <trkpt lat="44.93644" lon="1.10083">
        <ele>183.664993</ele>
        <time>2014-04-19T12:16:23Z</time>
      </trkpt>
      <trkpt lat="44.93613" lon="1.10052">
        <ele>188.252747</ele>
        <time>2014-04-19T12:16:46Z</time>
      </trkpt>
      <trkpt lat="44.93586" lon="1.10011">
        <ele>190.959351</ele>
        <time>2014-04-19T12:17:43Z</time>
      </trkpt>
      <trkpt lat="44.93595" lon="1.1001">
        <ele>190.728729</ele>
        <time>2014-04-19T12:20:00Z</time>
      </trkpt>
      <trkpt lat="44.93623" lon="1.10005">
        <ele>190.157501</ele>
        <time>2014-04-19T12:20:05Z</time>
      </trkpt>
      <trkpt lat="44.93672" lon="1.09971">
        <ele>189.106964</ele>
        <time>2014-04-19T12:20:20Z</time>
      </trkpt>
      <trkpt lat="44.93631" lon="1.09889">
        <ele>185.467194</ele>
        <time>2014-04-19T12:20:39Z</time>
      </trkpt>
      <trkpt lat="44.93569" lon="1.09817">
        <ele>179.762497</ele>
        <time>2014-04-19T12:20:52Z</time>
      </trkpt>
      <trkpt lat="44.93535" lon="1.09792">
        <ele>178.193146</ele>
        <time>2014-04-19T12:21:01Z</time>
      </trkpt>
      <trkpt lat="44.93488" lon="1.09674">
        <ele>166.649139</ele>
        <time>2014-04-19T12:21:27Z</time>
      </trkpt>
      <trkpt lat="44.93484" lon="1.09614">
        <ele>173.203217</ele>
        <time>2014-04-19T12:22:01Z</time>
      </trkpt>
      <trkpt lat="44.93503" lon="1.09568">
        <ele>176.430283</ele>
        <time>2014-04-19T12:22:35Z</time>
      </trkpt>
      <trkpt lat="44.93494" lon="1.09522">
        <ele>181.292175</ele>
        <time>2014-04-19T12:23:09Z</time>
      </trkpt>
      <trkpt lat="44.93464" lon="1.09262">
        <ele>198.844589</ele>
        <time>2014-04-19T12:25:28Z</time>
      </trkpt>
      <trkpt lat="44.93489" lon="1.09177">
        <ele>202.284576</ele>
        <time>2014-04-19T12:26:24Z</time>
      </trkpt>
      <trkpt lat="44.93486" lon="1.09167">
        <ele>202.785004</ele>
        <time>2014-04-19T12:26:32Z</time>
      </trkpt>
      <trkpt lat="44.93488" lon="1.09128">
        <ele>203.978745</ele>
        <time>2014-04-19T12:26:47Z</time>
      </trkpt>
      <trkpt lat="44.93505" lon="1.09089">
        <ele>204.252502</ele>
        <time>2014-04-19T12:27:00Z</time>
      </trkpt>
      <trkpt lat="44.935" lon="1.09059">
        <ele>204.375</ele>
        <time>2014-04-19T12:27:13Z</time>
      </trkpt>
      <trkpt lat="44.93488" lon="1.09002">
        <ele>204.216019</ele>
        <time>2014-04-19T12:27:26Z</time>
      </trkpt>
      <trkpt lat="44.93502" lon="1.08903">
        <ele>203.594254</ele>
        <time>2014-04-19T12:27:47Z</time>
      </trkpt>
      <trkpt lat="44.93546" lon="1.08739">
        <ele>203.642319</ele>
        <time>2014-04-19T12:28:22Z</time>
      </trkpt>
      <trkpt lat="44.93576" lon="1.08675">
        <ele>203.225342</ele>
        <time>2014-04-19T12:28:39Z</time>
      </trkpt>
      <trkpt lat="44.93639" lon="1.08587">
        <ele>208.004257</ele>
        <time>2014-04-19T12:29:09Z</time>
      </trkpt>
      <trkpt lat="44.93712" lon="1.08518">
        <ele>214.708969</ele>
        <time>2014-04-19T12:29:54Z</time>
      </trkpt>
      <trkpt lat="44.93723" lon="1.0849">
        <ele>216.995377</ele>
        <time>2014-04-19T12:30:10Z</time>
      </trkpt>
      <trkpt lat="44.93715" lon="1.08463">
        <ele>219.137466</ele>
        <time>2014-04-19T12:30:24Z</time>
      </trkpt>
      <trkpt lat="44.9371" lon="1.0842">
        <ele>220.122559</ele>
        <time>2014-04-19T12:30:40Z</time>
      </trkpt>
      <trkpt lat="44.93729" lon="1.08328">
        <ele>216.70163</ele>
        <time>2014-04-19T12:31:01Z</time>
      </trkpt>
      <trkpt lat="44.93761" lon="1.08262">
        <ele>213.10437</ele>
        <time>2014-04-19T12:31:19Z</time>
      </trkpt>
      <trkpt lat="44.9376" lon="1.08259">
        <ele>212.768753</ele>
        <time>2014-04-19T12:31:21Z</time>
      </trkpt>
      <trkpt lat="44.93732" lon="1.08178">
        <ele>202.843018</ele>
        <time>2014-04-19T12:31:50Z</time>
      </trkpt>
      <trkpt lat="44.93764" lon="1.08147">
        <ele>201.376831</ele>
        <time>2014-04-19T12:32:12Z</time>
      </trkpt>
      <trkpt lat="44.93769" lon="1.08116">
        <ele>197.533051</ele>
        <time>2014-04-19T12:32:21Z</time>
      </trkpt>
      <trkpt lat="44.93777" lon="1.08093">
        <ele>195.062424</ele>
        <time>2014-04-19T12:32:25Z</time>
      </trkpt>
      <trkpt lat="44.9383" lon="1.08014">
        <ele>192.566376</ele>
        <time>2014-04-19T12:32:42Z</time>
      </trkpt>
      <trkpt lat="44.93817" lon="1.07807">
        <ele>200.63414</ele>
        <time>2014-04-19T12:34:07Z</time>
      </trkpt>
      <trkpt lat="44.93796" lon="1.07742">
        <ele>205.213547</ele>
        <time>2014-04-19T12:34:57Z</time>
      </trkpt>
      <trkpt lat="44.93795" lon="1.0774">
        <ele>205.214569</ele>
        <time>2014-04-19T12:34:58Z</time>
      </trkpt>
      <trkpt lat="44.93733" lon="1.07711">
        <ele>199.718933</ele>
        <time>2014-04-19T12:35:21Z</time>
      </trkpt>
      <trkpt lat="44.93713" lon="1.07645">
        <ele>196.167496</ele>
        <time>2014-04-19T12:35:36Z</time>
      </trkpt>
      <trkpt lat="44.93715" lon="1.07609">
        <ele>194.069992</ele>
        <time>2014-04-19T12:35:45Z</time>
      </trkpt>
      <trkpt lat="44.93697" lon="1.0759">
        <ele>191.692505</ele>
        <time>2014-04-19T12:35:54Z</time>
      </trkpt>
      <trkpt lat="44.93694" lon="1.07547">
        <ele>187.123123</ele>
        <time>2014-04-19T12:36:05Z</time>
      </trkpt>
      <trkpt lat="44.93678" lon="1.07529">
        <ele>184.063644</ele>
        <time>2014-04-19T12:36:13Z</time>
      </trkpt>
      <trkpt lat="44.93666" lon="1.07474">
        <ele>177.638123</ele>
        <time>2014-04-19T12:36:25Z</time>
      </trkpt>
      <trkpt lat="44.93639" lon="1.07414">
        <ele>171.845474</ele>
        <time>2014-04-19T12:36:37Z</time>
      </trkpt>
      <trkpt lat="44.93548" lon="1.07257">
        <ele>159.509201</ele>
        <time>2014-04-19T12:37:12Z</time>
      </trkpt>
      <trkpt lat="44.93544" lon="1.07211">
        <ele>156.061966</ele>
        <time>2014-04-19T12:37:25Z</time>
      </trkpt>
      <trkpt lat="44.93535" lon="1.07163">
        <ele>152.863754</ele>
        <time>2014-04-19T12:37:36Z</time>
      </trkpt>
      <trkpt lat="44.9352" lon="1.07132">
        <ele>151.012497</ele>
        <time>2014-04-19T12:37:46Z</time>
      </trkpt>
      <trkpt lat="44.93541" lon="1.07071">
        <ele>144.676254</ele>
        <time>2014-04-19T12:38:09Z</time>
      </trkpt>
      <trkpt lat="44.93569" lon="1.07088">
        <ele>140.885345</ele>
        <time>2014-04-19T12:38:20Z</time>
      </trkpt>
      <trkpt lat="44.93585" lon="1.07104">
        <ele>139.873047</ele>
        <time>2014-04-19T12:38:25Z</time>
      </trkpt>
      <trkpt lat="44.93594" lon="1.07095">
        <ele>139.043152</ele>
        <time>2014-04-19T12:38:32Z</time>
      </trkpt>
      <trkpt lat="44.93598" lon="1.06956">
        <ele>125.264778</ele>
        <time>2014-04-19T12:38:57Z</time>
      </trkpt>
      <trkpt lat="44.93534" lon="1.06729">
        <ele>99.148064</ele>
        <time>2014-04-19T12:39:38Z</time>
      </trkpt>
      <trkpt lat="44.93588" lon="1.06656">
        <ele>97.808502</ele>
        <time>2014-04-19T12:39:58Z</time>
      </trkpt>
      <trkpt lat="44.93628" lon="1.06624">
        <ele>98.641098</ele>
        <time>2014-04-19T12:40:11Z</time>
      </trkpt>
      <trkpt lat="44.93882" lon="1.06543">
        <ele>108.337547</ele>
        <time>2014-04-19T12:41:09Z</time>
      </trkpt>
      <trkpt lat="44.93901" lon="1.06533">
        <ele>108.34343</ele>
        <time>2014-04-19T12:41:14Z</time>
      </trkpt>
      <trkpt lat="44.93902" lon="1.06527">
        <ele>106.773514</ele>
        <time>2014-04-19T12:41:16Z</time>
      </trkpt>
      <trkpt lat="44.93883" lon="1.06514">
        <ele>100.292549</ele>
        <time>2014-04-19T12:41:28Z</time>
      </trkpt>
      <trkpt lat="44.93823" lon="1.06376">
        <ele>92.011253</ele>
        <time>2014-04-19T12:42:17Z</time>
      </trkpt>
      <trkpt lat="44.93813" lon="1.06339">
        <ele>98.644531</ele>
        <time>2014-04-19T12:42:36Z</time>
      </trkpt>
      <trkpt lat="44.93814" lon="1.06336">
        <ele>99.04911</ele>
        <time>2014-04-19T12:42:38Z</time>
      </trkpt>
      <trkpt lat="44.93849" lon="1.0627">
        <ele>103.674377</ele>
        <time>2014-04-19T12:43:14Z</time>
      </trkpt>
      <trkpt lat="44.93827" lon="1.06289">
        <ele>105.726875</ele>
        <time>2014-04-19T12:43:30Z</time>
      </trkpt>
      <trkpt lat="44.93802" lon="1.06297">
        <ele>110.15696</ele>
        <time>2014-04-19T12:43:38Z</time>
      </trkpt>
      <trkpt lat="44.93757" lon="1.06335">
        <ele>106.812637</ele>
        <time>2014-04-19T12:43:50Z</time>
      </trkpt>
      <trkpt lat="44.93701" lon="1.06347">
        <ele>104.219482</ele>
        <time>2014-04-19T12:44:12Z</time>
      </trkpt>
      <trkpt lat="44.93634" lon="1.06287">
        <ele>107.885567</ele>
        <time>2014-04-19T12:44:57Z</time>
      </trkpt>
      <trkpt lat="44.93623" lon="1.06259">
        <ele>108.679115</ele>
        <time>2014-04-19T12:45:15Z</time>
      </trkpt>
      <trkpt lat="44.93604" lon="1.06228">
        <ele>114.074173</ele>
        <time>2014-04-19T12:45:28Z</time>
      </trkpt>
      <trkpt lat="44.93571" lon="1.06207">
        <ele>110.766403</ele>
        <time>2014-04-19T12:45:39Z</time>
      </trkpt>
      <trkpt lat="44.93513" lon="1.05906">
        <ele>136.09079</ele>
        <time>2014-04-19T12:47:53Z</time>
      </trkpt>
      <trkpt lat="44.93429" lon="1.05862">
        <ele>142.347504</ele>
        <time>2014-04-19T12:48:56Z</time>
      </trkpt>
      <trkpt lat="44.9335" lon="1.05845">
        <ele>149.25972</ele>
        <time>2014-04-19T12:49:54Z</time>
      </trkpt>
      <trkpt lat="44.93308" lon="1.05798">
        <ele>154.855988</ele>
        <time>2014-04-19T12:50:33Z</time>
      </trkpt>
      <trkpt lat="44.93258" lon="1.05771">
        <ele>163.592041</ele>
        <time>2014-04-19T12:51:20Z</time>
      </trkpt>
      <trkpt lat="44.93151" lon="1.05712">
        <ele>177.005798</ele>
        <time>2014-04-19T12:54:04Z</time>
      </trkpt>
      <trkpt lat="44.93048" lon="1.05694">
        <ele>188.438385</ele>
        <time>2014-04-19T12:55:26Z</time>
      </trkpt>
      <trkpt lat="44.93026" lon="1.05714">
        <ele>194.557526</ele>
        <time>2014-04-19T12:55:45Z</time>
      </trkpt>
      <trkpt lat="44.92944" lon="1.05703">
        <ele>210.135056</ele>
        <time>2014-04-19T12:56:50Z</time>
      </trkpt>
      <trkpt lat="44.92924" lon="1.057">
        <ele>211.619614</ele>
        <time>2014-04-19T12:57:04Z</time>
      </trkpt>
      <trkpt lat="44.9292" lon="1.05746">
        <ele>212.66806</ele>
        <time>2014-04-19T12:57:32Z</time>
      </trkpt>
      <trkpt lat="44.92894" lon="1.05892">
        <ele>219.946747</ele>
        <time>2014-04-19T12:58:33Z</time>
      </trkpt>
      <trkpt lat="44.92885" lon="1.0594">
        <ele>221.383835</ele>
        <time>2014-04-19T12:58:48Z</time>
      </trkpt>
      <trkpt lat="44.92868" lon="1.06019">
        <ele>219.308868</ele>
        <time>2014-04-19T12:59:05Z</time>
      </trkpt>
      <trkpt lat="44.92856" lon="1.06059">
        <ele>216.223587</ele>
        <time>2014-04-19T12:59:11Z</time>
      </trkpt>
      <trkpt lat="44.92831" lon="1.06124">
        <ele>209.822495</ele>
        <time>2014-04-19T12:59:21Z</time>
      </trkpt>
      <trkpt lat="44.92723" lon="1.06278">
        <ele>214.368851</ele>
        <time>2014-04-19T13:00:12Z</time>
      </trkpt>
      <trkpt lat="44.92695" lon="1.06302">
        <ele>216.233459</ele>
        <time>2014-04-19T13:00:38Z</time>
      </trkpt>
      <trkpt lat="44.92637" lon="1.06331">
        <ele>222.086273</ele>
        <time>2014-04-19T13:01:17Z</time>
      </trkpt>
      <trkpt lat="44.92599" lon="1.06357">
        <ele>222.786148</ele>
        <time>2014-04-19T13:01:36Z</time>
      </trkpt>
      <trkpt lat="44.92499" lon="1.06574">
        <ele>223.625656</ele>
        <time>2014-04-19T13:02:38Z</time>
      </trkpt>
      <trkpt lat="44.9243" lon="1.06599">
        <ele>227.522018</ele>
        <time>2014-04-19T13:03:11Z</time>
      </trkpt>
      <trkpt lat="44.92378" lon="1.06647">
        <ele>229.97139</ele>
        <time>2014-04-19T13:03:39Z</time>
      </trkpt>
      <trkpt lat="44.92338" lon="1.06685">
        <ele>231.448853</ele>
        <time>2014-04-19T13:04:00Z</time>
      </trkpt>
      <trkpt lat="44.92278" lon="1.06734">
        <ele>232.925568</ele>
        <time>2014-04-19T13:04:27Z</time>
      </trkpt>
      <trkpt lat="44.9225" lon="1.0675">
        <ele>232.821701</ele>
        <time>2014-04-19T13:04:34Z</time>
      </trkpt>
      <trkpt lat="44.92215" lon="1.06797">
        <ele>234</ele>
        <time>2014-04-19T13:04:52Z</time>
      </trkpt>
      <trkpt lat="44.92176" lon="1.06818">
        <ele>233.717682</ele>
        <time>2014-04-19T13:05:06Z</time>
      </trkpt>
      <trkpt lat="44.92159" lon="1.06815">
        <ele>233.185654</ele>
        <time>2014-04-19T13:05:09Z</time>
      </trkpt>
      <trkpt lat="44.92059" lon="1.06804">
        <ele>230.002975</ele>
        <time>2014-04-19T13:05:27Z</time>
      </trkpt>
      <trkpt lat="44.91969" lon="1.06747">
        <ele>226.233109</ele>
        <time>2014-04-19T13:05:46Z</time>
      </trkpt>
      <trkpt lat="44.91898" lon="1.0675">
        <ele>224.815598</ele>
        <time>2014-04-19T13:05:58Z</time>
      </trkpt>
      <trkpt lat="44.91895" lon="1.06755">
        <ele>224.211685</ele>
        <time>2014-04-19T13:06:00Z</time>
      </trkpt>
      <trkpt lat="44.91895" lon="1.06759">
        <ele>223.646347</ele>
        <time>2014-04-19T13:06:02Z</time>
      </trkpt>
      <trkpt lat="44.9193" lon="1.06759">
        <ele>223.861526</ele>
        <time>2014-04-19T13:06:18Z</time>
      </trkpt>
      <trkpt lat="44.91963" lon="1.06803">
        <ele>217.382919</ele>
        <time>2014-04-19T13:06:30Z</time>
      </trkpt>
      <trkpt lat="44.92074" lon="1.07062">
        <ele>206.831619</ele>
        <time>2014-04-19T13:07:11Z</time>
      </trkpt>
      <trkpt lat="44.92057" lon="1.07154">
        <ele>203.140762</ele>
        <time>2014-04-19T13:07:24Z</time>
      </trkpt>
      <trkpt lat="44.92031" lon="1.07195">
        <ele>197.405182</ele>
        <time>2014-04-19T13:07:32Z</time>
      </trkpt>
      <trkpt lat="44.9203" lon="1.07228">
        <ele>195.051819</ele>
        <time>2014-04-19T13:07:37Z</time>
      </trkpt>
      <trkpt lat="44.92035" lon="1.07235">
        <ele>194.922363</ele>
        <time>2014-04-19T13:07:39Z</time>
      </trkpt>
      <trkpt lat="44.92089" lon="1.0725">
        <ele>194.278336</ele>
        <time>2014-04-19T13:07:50Z</time>
      </trkpt>
      <trkpt lat="44.92126" lon="1.07286">
        <ele>188.407852</ele>
        <time>2014-04-19T13:07:59Z</time>
      </trkpt>
      <trkpt lat="44.92107" lon="1.0749">
        <ele>175.626801</ele>
        <time>2014-04-19T13:08:29Z</time>
      </trkpt>
      <trkpt lat="44.92141" lon="1.07518">
        <ele>170.618942</ele>
        <time>2014-04-19T13:08:41Z</time>
      </trkpt>
      <trkpt lat="44.92162" lon="1.07542">
        <ele>168.014328</ele>
        <time>2014-04-19T13:08:46Z</time>
      </trkpt>
      <trkpt lat="44.9217" lon="1.07552">
        <ele>166.878815</ele>
        <time>2014-04-19T13:08:48Z</time>
      </trkpt>
      <trkpt lat="44.92187" lon="1.07606">
        <ele>165.264267</ele>
        <time>2014-04-19T13:08:56Z</time>
      </trkpt>
      <trkpt lat="44.92342" lon="1.07751">
        <ele>133.016098</ele>
        <time>2014-04-19T13:09:41Z</time>
      </trkpt>
      <trkpt lat="44.92357" lon="1.07759">
        <ele>131.269531</ele>
        <time>2014-04-19T13:09:45Z</time>
      </trkpt>
      <trkpt lat="44.92424" lon="1.07796">
        <ele>124.09095</ele>
        <time>2014-04-19T13:10:02Z</time>
      </trkpt>
      <trkpt lat="44.92436" lon="1.07787">
        <ele>123.779976</ele>
        <time>2014-04-19T13:10:10Z</time>
      </trkpt>
      <trkpt lat="44.92443" lon="1.07771">
        <ele>123.764755</ele>
        <time>2014-04-19T13:10:17Z</time>
      </trkpt>
      <trkpt lat="44.92454" lon="1.07739">
        <ele>123.804001</ele>
        <time>2014-04-19T13:10:26Z</time>
      </trkpt>
      <trkpt lat="44.92495" lon="1.07738">
        <ele>119.91465</ele>
        <time>2014-04-19T13:10:40Z</time>
      </trkpt>
      <trkpt lat="44.92528" lon="1.07737">
        <ele>115.492599</ele>
        <time>2014-04-19T13:10:50Z</time>
      </trkpt>
      <trkpt lat="44.9254" lon="1.07708">
        <ele>114.803978</ele>
        <time>2014-04-19T13:11:01Z</time>
      </trkpt>
      <trkpt lat="44.9254" lon="1.07705">
        <ele>114.938896</ele>
        <time>2014-04-19T13:11:03Z</time>
      </trkpt>
      <trkpt lat="44.92541" lon="1.07711">
        <ele>114.57589</ele>
        <time>2014-04-19T13:11:10Z</time>
      </trkpt>
      <trkpt lat="44.92543" lon="1.07749">
        <ele>113.257065</ele>
        <time>2014-04-19T13:11:44Z</time>
      </trkpt>
      <trkpt lat="44.92506" lon="1.0783">
        <ele>116.994682</ele>
        <time>2014-04-19T13:12:15Z</time>
      </trkpt>
      <trkpt lat="44.92416" lon="1.07902">
        <ele>116.879532</ele>
        <time>2014-04-19T13:12:31Z</time>
      </trkpt>
      <trkpt lat="44.92399" lon="1.08016">
        <ele>114.435448</ele>
        <time>2014-04-19T13:12:49Z</time>
      </trkpt>
      <trkpt lat="44.92361" lon="1.08089">
        <ele>114.231209</ele>
        <time>2014-04-19T13:13:05Z</time>
      </trkpt>
      <trkpt lat="44.92359" lon="1.08088">
        <ele>114.442314</ele>
        <time>2014-04-19T13:13:06Z</time>
      </trkpt>
      <trkpt lat="44.92349" lon="1.08088">
        <ele>115.293053</ele>
        <time>2014-04-19T13:13:12Z</time>
      </trkpt>
      <trkpt lat="44.92349" lon="1.08093">
        <ele>115.209236</ele>
        <time>2014-04-19T13:13:14Z</time>
      </trkpt>
      <trkpt lat="44.92346" lon="1.08113">
        <ele>114.994362</ele>
        <time>2014-04-19T13:13:21Z</time>
      </trkpt>
      <trkpt lat="44.92336" lon="1.08246">
        <ele>114.495399</ele>
        <time>2014-04-19T13:13:49Z</time>
      </trkpt>
      <trkpt lat="44.92341" lon="1.08283">
        <ele>112.586891</ele>
        <time>2014-04-19T13:13:56Z</time>
      </trkpt>
      <trkpt lat="44.9228" lon="1.08401">
        <ele>117.751762</ele>
        <time>2014-04-19T13:14:32Z</time>
      </trkpt>
      <trkpt lat="44.92259" lon="1.0845">
        <ele>114.867012</ele>
        <time>2014-04-19T13:14:46Z</time>
      </trkpt>
      <trkpt lat="44.92201" lon="1.08499">
        <ele>114.351692</ele>
        <time>2014-04-19T13:15:04Z</time>
      </trkpt>
      <trkpt lat="44.92208" lon="1.08535">
        <ele>113.955002</ele>
        <time>2014-04-19T13:15:15Z</time>
      </trkpt>
      <trkpt lat="44.9222" lon="1.08577">
        <ele>113.760536</ele>
        <time>2014-04-19T13:15:26Z</time>
      </trkpt>
      <trkpt lat="44.92118" lon="1.08828">
        <ele>115.870316</ele>
        <time>2014-04-19T13:16:30Z</time>
      </trkpt>
      <trkpt lat="44.91983" lon="1.09339">
        <ele>126.066322</ele>
        <time>2014-04-19T13:20:43Z</time>
      </trkpt>
      <trkpt lat="44.91949" lon="1.09401">
        <ele>131.659271</ele>
        <time>2014-04-19T13:21:31Z</time>
      </trkpt>
      <trkpt lat="44.91923" lon="1.09462">
        <ele>136.08989</ele>
        <time>2014-04-19T13:22:13Z</time>
      </trkpt>
      <trkpt lat="44.91881" lon="1.09489">
        <ele>148.660629</ele>
        <time>2014-04-19T13:22:47Z</time>
      </trkpt>
      <trkpt lat="44.91872" lon="1.09524">
        <ele>148.428314</ele>
        <time>2014-04-19T13:23:11Z</time>
      </trkpt>
      <trkpt lat="44.9184" lon="1.09569">
        <ele>151.2556</ele>
        <time>2014-04-19T13:23:46Z</time>
      </trkpt>
      <trkpt lat="44.91797" lon="1.09582">
        <ele>156.426102</ele>
        <time>2014-04-19T13:24:14Z</time>
      </trkpt>
      <trkpt lat="44.91678" lon="1.09498">
        <ele>164.50647</ele>
        <time>2014-04-19T13:25:30Z</time>
      </trkpt>
      <trkpt lat="44.91609" lon="1.09466">
        <ele>165.903748</ele>
        <time>2014-04-19T13:26:01Z</time>
      </trkpt>
      <trkpt lat="44.91532" lon="1.0946">
        <ele>171.412338</ele>
        <time>2014-04-19T13:26:47Z</time>
      </trkpt>
      <trkpt lat="44.91515" lon="1.09419">
        <ele>171.62822</ele>
        <time>2014-04-19T13:27:03Z</time>
      </trkpt>
      <trkpt lat="44.91435" lon="1.09464">
        <ele>170.213806</ele>
        <time>2014-04-19T13:27:22Z</time>
      </trkpt>
      <trkpt lat="44.91305" lon="1.09602">
        <ele>180.888748</ele>
        <time>2014-04-19T13:28:47Z</time>
      </trkpt>
      <trkpt lat="44.91309" lon="1.09615">
        <ele>180.479996</ele>
        <time>2014-04-19T13:28:52Z</time>
      </trkpt>
      <trkpt lat="44.914" lon="1.09708">
        <ele>168.933243</ele>
        <time>2014-04-19T13:29:16Z</time>
      </trkpt>
      <trkpt lat="44.91416" lon="1.09723">
        <ele>166.603989</ele>
        <time>2014-04-19T13:29:19Z</time>
      </trkpt>
      <trkpt lat="44.91563" lon="1.09797">
        <ele>154.24968</ele>
        <time>2014-04-19T13:29:48Z</time>
      </trkpt>
      <trkpt lat="44.91567" lon="1.09824">
        <ele>149.369019</ele>
        <time>2014-04-19T13:29:56Z</time>
      </trkpt>
      <trkpt lat="44.9151" lon="1.09846">
        <ele>148.785004</ele>
        <time>2014-04-19T13:30:11Z</time>
      </trkpt>
      <trkpt lat="44.91528" lon="1.09867">
        <ele>144.371124</ele>
        <time>2014-04-19T13:31:02Z</time>
      </trkpt>
      <trkpt lat="44.91597" lon="1.0988">
        <ele>137.038101</ele>
        <time>2014-04-19T13:31:19Z</time>
      </trkpt>
      <trkpt lat="44.9163" lon="1.09898">
        <ele>128.190948</ele>
        <time>2014-04-19T13:31:30Z</time>
      </trkpt>
      <trkpt lat="44.91673" lon="1.09904">
        <ele>120.691772</ele>
        <time>2014-04-19T13:31:54Z</time>
      </trkpt>
      <trkpt lat="44.91684" lon="1.09914">
        <ele>119.131134</ele>
        <time>2014-04-19T13:31:56Z</time>
      </trkpt>
      <trkpt lat="44.91718" lon="1.09962">
        <ele>118.499168</ele>
        <time>2014-04-19T13:32:04Z</time>
      </trkpt>
      <trkpt lat="44.91711" lon="1.10052">
        <ele>119.366249</ele>
        <time>2014-04-19T13:32:25Z</time>
      </trkpt>
      <trkpt lat="44.91647" lon="1.10267">
        <ele>124.437004</ele>
        <time>2014-04-19T13:33:13Z</time>
      </trkpt>
      <trkpt lat="44.91605" lon="1.10483">
        <ele>125.782227</ele>
        <time>2014-04-19T13:34:24Z</time>
      </trkpt>
      <trkpt lat="44.91589" lon="1.10553">
        <ele>123.261642</ele>
        <time>2014-04-19T13:34:49Z</time>
      </trkpt>
      <trkpt lat="44.91568" lon="1.10577">
        <ele>121.508507</ele>
        <time>2014-04-19T13:35:00Z</time>
      </trkpt>
      <trkpt lat="44.9157" lon="1.10597">
        <ele>119.769814</ele>
        <time>2014-04-19T13:35:05Z</time>
      </trkpt>
      <trkpt lat="44.9151" lon="1.10617">
        <ele>118.501251</ele>
        <time>2014-04-19T13:35:33Z</time>
      </trkpt>
      <trkpt lat="44.91494" lon="1.10607">
        <ele>119.717941</ele>
        <time>2014-04-19T13:35:46Z</time>
      </trkpt>
      <trkpt lat="44.91483" lon="1.10567">
        <ele>124.361343</ele>
        <time>2014-04-19T13:36:12Z</time>
      </trkpt>
      <trkpt lat="44.91443" lon="1.10486">
        <ele>135.935654</ele>
        <time>2014-04-19T13:36:50Z</time>
      </trkpt>
      <trkpt lat="44.91373" lon="1.10426">
        <ele>142.396255</ele>
        <time>2014-04-19T13:37:31Z</time>
      </trkpt>
      <trkpt lat="44.91351" lon="1.10434">
        <ele>141.332718</ele>
        <time>2014-04-19T13:37:46Z</time>
      </trkpt>
      <trkpt lat="44.91322" lon="1.1046">
        <ele>139.035385</ele>
        <time>2014-04-19T13:38:09Z</time>
      </trkpt>
      <trkpt lat="44.91306" lon="1.10494">
        <ele>136.966949</ele>
        <time>2014-04-19T13:38:34Z</time>
      </trkpt>
      <trkpt lat="44.91268" lon="1.10572">
        <ele>135.255997</ele>
        <time>2014-04-19T13:39:31Z</time>
      </trkpt>
      <trkpt lat="44.91265" lon="1.1062">
        <ele>134.777405</ele>
        <time>2014-04-19T13:39:59Z</time>
      </trkpt>
      <trkpt lat="44.91251" lon="1.10716">
        <ele>137.443161</ele>
        <time>2014-04-19T13:40:50Z</time>
      </trkpt>
      <trkpt lat="44.91142" lon="1.10833">
        <ele>166.206894</ele>
        <time>2014-04-19T13:42:36Z</time>
      </trkpt>
      <trkpt lat="44.91103" lon="1.10858">
        <ele>170.472107</ele>
        <time>2014-04-19T13:43:13Z</time>
      </trkpt>
      <trkpt lat="44.9099" lon="1.10909">
        <ele>175.970779</ele>
        <time>2014-04-19T13:44:53Z</time>
      </trkpt>
      <trkpt lat="44.9084" lon="1.10931">
        <ele>182.961014</ele>
        <time>2014-04-19T13:46:17Z</time>
      </trkpt>
      <trkpt lat="44.90674" lon="1.10899">
        <ele>196.974533</ele>
        <time>2014-04-19T13:47:37Z</time>
      </trkpt>
      <trkpt lat="44.90605" lon="1.10868">
        <ele>201.904022</ele>
        <time>2014-04-19T13:48:11Z</time>
      </trkpt>
      <trkpt lat="44.90525" lon="1.1085">
        <ele>207.860611</ele>
        <time>2014-04-19T13:49:02Z</time>
      </trkpt>
      <trkpt lat="44.90509" lon="1.10872">
        <ele>206.849945</ele>
        <time>2014-04-19T13:49:14Z</time>
      </trkpt>
      <trkpt lat="44.90511" lon="1.10879">
        <ele>206.616058</ele>
        <time>2014-04-19T13:53:04Z</time>
      </trkpt>
      <trkpt lat="44.90509" lon="1.10878">
        <ele>206.561523</ele>
        <time>2014-04-19T13:53:39Z</time>
      </trkpt>
      <trkpt lat="44.90506" lon="1.10878">
        <ele>206.433594</ele>
        <time>2014-04-19T13:53:41Z</time>
      </trkpt>
      <trkpt lat="44.90501" lon="1.10884">
        <ele>205.751556</ele>
        <time>2014-04-19T13:53:43Z</time>
      </trkpt>
      <trkpt lat="44.90485" lon="1.10901">
        <ele>202.995682</ele>
        <time>2014-04-19T13:53:49Z</time>
      </trkpt>
      <trkpt lat="44.90448" lon="1.10923">
        <ele>198.815048</ele>
        <time>2014-04-19T13:53:57Z</time>
      </trkpt>
      <trkpt lat="44.90434" lon="1.10936">
        <ele>196.532486</ele>
        <time>2014-04-19T13:54:00Z</time>
      </trkpt>
      <trkpt lat="44.90417" lon="1.10987">
        <ele>193.526199</ele>
        <time>2014-04-19T13:54:08Z</time>
      </trkpt>
      <trkpt lat="44.90396" lon="1.11006">
        <ele>196.01387</ele>
        <time>2014-04-19T13:54:23Z</time>
      </trkpt>
      <trkpt lat="44.90367" lon="1.1103">
        <ele>201.334991</ele>
        <time>2014-04-19T13:54:48Z</time>
      </trkpt>
      <trkpt lat="44.90347" lon="1.11056">
        <ele>204.669998</ele>
        <time>2014-04-19T13:55:05Z</time>
      </trkpt>
      <trkpt lat="44.90336" lon="1.11103">
        <ele>206.790146</ele>
        <time>2014-04-19T13:55:27Z</time>
      </trkpt>
      <trkpt lat="44.90344" lon="1.11126">
        <ele>205.225601</ele>
        <time>2014-04-19T13:55:36Z</time>
      </trkpt>
      <trkpt lat="44.90375" lon="1.11145">
        <ele>200.348221</ele>
        <time>2014-04-19T13:55:46Z</time>
      </trkpt>
      <trkpt lat="44.90411" lon="1.11168">
        <ele>196.649216</ele>
        <time>2014-04-19T13:55:55Z</time>
      </trkpt>
      <trkpt lat="44.90466" lon="1.11213">
        <ele>186.972992</ele>
        <time>2014-04-19T13:56:05Z</time>
      </trkpt>
      <trkpt lat="44.90521" lon="1.11243">
        <ele>175.107605</ele>
        <time>2014-04-19T13:56:15Z</time>
      </trkpt>
      <trkpt lat="44.90552" lon="1.11238">
        <ele>169.283127</ele>
        <time>2014-04-19T13:56:21Z</time>
      </trkpt>
      <trkpt lat="44.90612" lon="1.11248">
        <ele>164.126297</ele>
        <time>2014-04-19T13:56:32Z</time>
      </trkpt>
      <trkpt lat="44.90653" lon="1.11263">
        <ele>160.978058</ele>
        <time>2014-04-19T13:56:40Z</time>
      </trkpt>
      <trkpt lat="44.90675" lon="1.11307">
        <ele>157.059372</ele>
        <time>2014-04-19T13:56:52Z</time>
      </trkpt>
      <trkpt lat="44.90753" lon="1.1125">
        <ele>144.926437</ele>
        <time>2014-04-19T13:57:11Z</time>
      </trkpt>
      <trkpt lat="44.90763" lon="1.11275">
        <ele>143.717148</ele>
        <time>2014-04-19T13:57:17Z</time>
      </trkpt>
      <trkpt lat="44.90701" lon="1.1143">
        <ele>141.67659</ele>
        <time>2014-04-19T13:57:55Z</time>
      </trkpt>
      <trkpt lat="44.90693" lon="1.11479">
        <ele>140.568665</ele>
        <time>2014-04-19T13:58:17Z</time>
      </trkpt>
      <trkpt lat="44.9063" lon="1.11532">
        <ele>139.751709</ele>
        <time>2014-04-19T13:58:43Z</time>
      </trkpt>
      <trkpt lat="44.90572" lon="1.11697">
        <ele>141.815506</ele>
        <time>2014-04-19T13:59:34Z</time>
      </trkpt>
      <trkpt lat="44.90536" lon="1.11791">
        <ele>143.683258</ele>
        <time>2014-04-19T13:59:56Z</time>
      </trkpt>
      <trkpt lat="44.90471" lon="1.1188">
        <ele>140.407104</ele>
        <time>2014-04-19T14:00:19Z</time>
      </trkpt>
      <trkpt lat="44.90417" lon="1.1184">
        <ele>139.069763</ele>
        <time>2014-04-19T14:00:39Z</time>
      </trkpt>
      <trkpt lat="44.9032" lon="1.11805">
        <ele>140.97731</ele>
        <time>2014-04-19T14:01:15Z</time>
      </trkpt>
      <trkpt lat="44.90226" lon="1.11778">
        <ele>141.349045</ele>
        <time>2014-04-19T14:01:49Z</time>
      </trkpt>
      <trkpt lat="44.90188" lon="1.11735">
        <ele>141.876465</ele>
        <time>2014-04-19T14:02:04Z</time>
      </trkpt>
      <trkpt lat="44.9003" lon="1.11757">
        <ele>147.306107</ele>
        <time>2014-04-19T14:03:07Z</time>
      </trkpt>
      <trkpt lat="44.89904" lon="1.11745">
        <ele>155.420502</ele>
        <time>2014-04-19T14:04:17Z</time>
      </trkpt>
      <trkpt lat="44.8989" lon="1.11723">
        <ele>153.028091</ele>
        <time>2014-04-19T14:04:28Z</time>
      </trkpt>
      <trkpt lat="44.89833" lon="1.11706">
        <ele>158.426636</ele>
        <time>2014-04-19T14:04:52Z</time>
      </trkpt>
      <trkpt lat="44.89732" lon="1.11728">
        <ele>159.661255</ele>
        <time>2014-04-19T14:05:39Z</time>
      </trkpt>
      <trkpt lat="44.89685" lon="1.11718">
        <ele>158.867035</ele>
        <time>2014-04-19T14:06:01Z</time>
      </trkpt>
      <trkpt lat="44.89672" lon="1.11721">
        <ele>158.918594</ele>
        <time>2014-04-19T14:06:08Z</time>
      </trkpt>
      <trkpt lat="44.89637" lon="1.11778">
        <ele>160.65509</ele>
        <time>2014-04-19T14:06:33Z</time>
      </trkpt>
      <trkpt lat="44.8961" lon="1.11814">
        <ele>164.043945</ele>
        <time>2014-04-19T14:06:49Z</time>
      </trkpt>
      <trkpt lat="44.89553" lon="1.11869">
        <ele>166.724823</ele>
        <time>2014-04-19T14:07:21Z</time>
      </trkpt>
      <trkpt lat="44.89495" lon="1.12013">
        <ele>171.110519</ele>
        <time>2014-04-19T14:08:24Z</time>
      </trkpt>
      <trkpt lat="44.89468" lon="1.12045">
        <ele>171.374451</ele>
        <time>2014-04-19T14:08:41Z</time>
      </trkpt>
      <trkpt lat="44.89346" lon="1.12071">
        <ele>177.702499</ele>
        <time>2014-04-19T14:09:49Z</time>
      </trkpt>
      <trkpt lat="44.89338" lon="1.12073">
        <ele>177.828751</ele>
        <time>2014-04-19T14:09:51Z</time>
      </trkpt>
      <trkpt lat="44.89243" lon="1.12066">
        <ele>180.438309</ele>
        <time>2014-04-19T14:10:26Z</time>
      </trkpt>
      <trkpt lat="44.89182" lon="1.121">
        <ele>185.425171</ele>
        <time>2014-04-19T14:11:40Z</time>
      </trkpt>
      <trkpt lat="44.89123" lon="1.12109">
        <ele>189.097504</ele>
        <time>2014-04-19T14:14:20Z</time>
      </trkpt>
      <trkpt lat="44.89058" lon="1.12125">
        <ele>194.387085</ele>
        <time>2014-04-19T14:15:21Z</time>
      </trkpt>
      <trkpt lat="44.88963" lon="1.1217">
        <ele>200.642502</ele>
        <time>2014-04-19T14:16:30Z</time>
      </trkpt>
      <trkpt lat="44.88951" lon="1.12196">
        <ele>202.460892</ele>
        <time>2014-04-19T14:16:49Z</time>
      </trkpt>
      <trkpt lat="44.89364" lon="1.12289">
        <ele>205.171402</ele>
        <time>2014-04-19T14:19:08Z</time>
      </trkpt>
      <trkpt lat="44.89413" lon="1.12302">
        <ele>204.082474</ele>
        <time>2014-04-19T14:19:21Z</time>
      </trkpt>
      <trkpt lat="44.89454" lon="1.12306">
        <ele>202.259995</ele>
        <time>2014-04-19T14:19:28Z</time>
      </trkpt>
      <trkpt lat="44.89493" lon="1.12333">
        <ele>200.998749</ele>
        <time>2014-04-19T14:19:38Z</time>
      </trkpt>
      <trkpt lat="44.89612" lon="1.12403">
        <ele>187.436249</ele>
        <time>2014-04-19T14:20:02Z</time>
      </trkpt>
      <trkpt lat="44.89588" lon="1.12418">
        <ele>184.883118</ele>
        <time>2014-04-19T14:20:08Z</time>
      </trkpt>
      <trkpt lat="44.89574" lon="1.12419">
        <ele>185.465622</ele>
        <time>2014-04-19T14:20:10Z</time>
      </trkpt>
      <trkpt lat="44.8953" lon="1.12436">
        <ele>186.140442</ele>
        <time>2014-04-19T14:20:17Z</time>
      </trkpt>
      <trkpt lat="44.89502" lon="1.12463">
        <ele>185.596329</ele>
        <time>2014-04-19T14:20:22Z</time>
      </trkpt>
      <trkpt lat="44.89499" lon="1.12478">
        <ele>183.59996</ele>
        <time>2014-04-19T14:20:24Z</time>
      </trkpt>
      <trkpt lat="44.89499" lon="1.12491">
        <ele>181.337738</ele>
        <time>2014-04-19T14:20:26Z</time>
      </trkpt>
      <trkpt lat="44.895" lon="1.12496">
        <ele>180.232224</ele>
        <time>2014-04-19T14:20:27Z</time>
      </trkpt>
      <trkpt lat="44.89559" lon="1.12567">
        <ele>167.531494</ele>
        <time>2014-04-19T14:20:45Z</time>
      </trkpt>
      <trkpt lat="44.89587" lon="1.12618">
        <ele>161.184021</ele>
        <time>2014-04-19T14:21:01Z</time>
      </trkpt>
      <trkpt lat="44.89602" lon="1.12634">
        <ele>159.029999</ele>
        <time>2014-04-19T14:21:16Z</time>
      </trkpt>
      <trkpt lat="44.89583" lon="1.1271">
        <ele>155.485046</ele>
        <time>2014-04-19T14:21:35Z</time>
      </trkpt>
      <trkpt lat="44.89617" lon="1.128">
        <ele>152.244019</ele>
        <time>2014-04-19T14:22:15Z</time>
      </trkpt>
      <trkpt lat="44.89682" lon="1.12785">
        <ele>151.105164</ele>
        <time>2014-04-19T14:22:49Z</time>
      </trkpt>
      <trkpt lat="44.89709" lon="1.12765">
        <ele>151.006363</ele>
        <time>2014-04-19T14:22:55Z</time>
      </trkpt>
      <trkpt lat="44.89723" lon="1.12744">
        <ele>149.734146</ele>
        <time>2014-04-19T14:22:58Z</time>
      </trkpt>
      <trkpt lat="44.89752" lon="1.12698">
        <ele>147.645187</ele>
        <time>2014-04-19T14:23:04Z</time>
      </trkpt>
      <trkpt lat="44.89788" lon="1.12668">
        <ele>145.297287</ele>
        <time>2014-04-19T14:23:10Z</time>
      </trkpt>
      <trkpt lat="44.89851" lon="1.12638">
        <ele>144.659378</ele>
        <time>2014-04-19T14:23:21Z</time>
      </trkpt>
      <trkpt lat="44.89982" lon="1.12632">
        <ele>146.030945</ele>
        <time>2014-04-19T14:23:49Z</time>
      </trkpt>
      <trkpt lat="44.90074" lon="1.12547">
        <ele>139.580933</ele>
        <time>2014-04-19T14:24:12Z</time>
      </trkpt>
      <trkpt lat="44.90339" lon="1.1237">
        <ele>141.770035</ele>
        <time>2014-04-19T14:25:28Z</time>
      </trkpt>
      <trkpt lat="44.9038" lon="1.1233">
        <ele>140.019073</ele>
        <time>2014-04-19T14:25:38Z</time>
      </trkpt>
      <trkpt lat="44.9044" lon="1.12304">
        <ele>141.366257</ele>
        <time>2014-04-19T14:25:53Z</time>
      </trkpt>
      <trkpt lat="44.90443" lon="1.12306">
        <ele>141.657944</ele>
        <time>2014-04-19T14:25:54Z</time>
      </trkpt>
      <trkpt lat="44.90467" lon="1.1239">
        <ele>146.021927</ele>
        <time>2014-04-19T14:26:17Z</time>
      </trkpt>
      <trkpt lat="44.90476" lon="1.12585">
        <ele>150.902374</ele>
        <time>2014-04-19T14:27:22Z</time>
      </trkpt>
      <trkpt lat="44.9053" lon="1.12766">
        <ele>152.72525</ele>
        <time>2014-04-19T14:28:06Z</time>
      </trkpt>
      <trkpt lat="44.9052" lon="1.12878">
        <ele>154.971725</ele>
        <time>2014-04-19T14:28:30Z</time>
      </trkpt>
      <trkpt lat="44.90517" lon="1.12889">
        <ele>155.139526</ele>
        <time>2014-04-19T14:28:36Z</time>
      </trkpt>
      <trkpt lat="44.90507" lon="1.12942">
        <ele>155.644302</ele>
        <time>2014-04-19T14:29:03Z</time>
      </trkpt>
      <trkpt lat="44.90506" lon="1.12999">
        <ele>156.256882</ele>
        <time>2014-04-19T14:29:17Z</time>
      </trkpt>
      <trkpt lat="44.90505" lon="1.13006">
        <ele>156.433121</ele>
        <time>2014-04-19T14:29:23Z</time>
      </trkpt>
      <trkpt lat="44.90507" lon="1.13016">
        <ele>156.495621</ele>
        <time>2014-04-19T14:29:30Z</time>
      </trkpt>
      <trkpt lat="44.9051" lon="1.1302">
        <ele>156.419373</ele>
        <time>2014-04-19T14:29:33Z</time>
      </trkpt>
      <trkpt lat="44.90516" lon="1.13089">
        <ele>157.25563</ele>
        <time>2014-04-19T14:30:01Z</time>
      </trkpt>
      <trkpt lat="44.90567" lon="1.13167">
        <ele>156.124374</ele>
        <time>2014-04-19T14:30:36Z</time>
      </trkpt>
      <trkpt lat="44.90579" lon="1.13161">
        <ele>156.029373</ele>
        <time>2014-04-19T14:30:42Z</time>
      </trkpt>
      <trkpt lat="44.90606" lon="1.13191">
        <ele>156.507706</ele>
        <time>2014-04-19T14:31:12Z</time>
      </trkpt>
      <trkpt lat="44.90613" lon="1.13211">
        <ele>156.554306</ele>
        <time>2014-04-19T14:31:46Z</time>
      </trkpt>
      <trkpt lat="44.90502" lon="1.13226">
        <ele>158.200607</ele>
        <time>2014-04-19T14:33:05Z</time>
      </trkpt>
      <trkpt lat="44.90459" lon="1.1325">
        <ele>160.801041</ele>
        <time>2014-04-19T14:33:47Z</time>
      </trkpt>
      <trkpt lat="44.90398" lon="1.13323">
        <ele>166.544678</ele>
        <time>2014-04-19T14:34:43Z</time>
      </trkpt>
      <trkpt lat="44.90335" lon="1.13359">
        <ele>172.143829</ele>
        <time>2014-04-19T14:35:33Z</time>
      </trkpt>
      <trkpt lat="44.90273" lon="1.13405">
        <ele>174.420975</ele>
        <time>2014-04-19T14:36:34Z</time>
      </trkpt>
      <trkpt lat="44.90266" lon="1.13645">
        <ele>193.360001</ele>
        <time>2014-04-19T14:39:06Z</time>
      </trkpt>
      <trkpt lat="44.90267" lon="1.1373">
        <ele>201.217834</ele>
        <time>2014-04-19T14:40:00Z</time>
      </trkpt>
      <trkpt lat="44.90291" lon="1.13835">
        <ele>202.339844</ele>
        <time>2014-04-19T14:40:21Z</time>
      </trkpt>
      <trkpt lat="44.90304" lon="1.13879">
        <ele>202.946198</ele>
        <time>2014-04-19T14:40:27Z</time>
      </trkpt>
      <trkpt lat="44.90363" lon="1.13918">
        <ele>201.985428</ele>
        <time>2014-04-19T14:40:52Z</time>
      </trkpt>
      <trkpt lat="44.90395" lon="1.13934">
        <ele>202.014999</ele>
        <time>2014-04-19T14:41:05Z</time>
      </trkpt>
      <trkpt lat="44.90434" lon="1.14022">
        <ele>205.606522</ele>
        <time>2014-04-19T14:41:36Z</time>
      </trkpt>
      <trkpt lat="44.90433" lon="1.1421">
        <ele>196.020767</ele>
        <time>2014-04-19T14:42:51Z</time>
      </trkpt>
      <trkpt lat="44.9042" lon="1.14242">
        <ele>195.298416</ele>
        <time>2014-04-19T14:42:55Z</time>
      </trkpt>
      <trkpt lat="44.90404" lon="1.14264">
        <ele>194.396835</ele>
        <time>2014-04-19T14:42:58Z</time>
      </trkpt>
      <trkpt lat="44.90386" lon="1.14316">
        <ele>192.83812</ele>
        <time>2014-04-19T14:43:04Z</time>
      </trkpt>
      <trkpt lat="44.90388" lon="1.14333">
        <ele>194.466782</ele>
        <time>2014-04-19T14:43:06Z</time>
      </trkpt>
      <trkpt lat="44.90392" lon="1.14347">
        <ele>195.748245</ele>
        <time>2014-04-19T14:43:08Z</time>
      </trkpt>
      <trkpt lat="44.90464" lon="1.14393">
        <ele>200.182068</ele>
        <time>2014-04-19T14:43:54Z</time>
      </trkpt>
      <trkpt lat="44.90559" lon="1.14441">
        <ele>204.312744</ele>
        <time>2014-04-19T14:44:45Z</time>
      </trkpt>
      <trkpt lat="44.90561" lon="1.14461">
        <ele>204.603531</ele>
        <time>2014-04-19T14:44:51Z</time>
      </trkpt>
      <trkpt lat="44.90576" lon="1.14495">
        <ele>203.18222</ele>
        <time>2014-04-19T14:45:03Z</time>
      </trkpt>
      <trkpt lat="44.90566" lon="1.14545">
        <ele>202.651566</ele>
        <time>2014-04-19T14:45:19Z</time>
      </trkpt>
      <trkpt lat="44.90522" lon="1.1464">
        <ele>198.635696</ele>
        <time>2014-04-19T14:45:46Z</time>
      </trkpt>
      <trkpt lat="44.90547" lon="1.14691">
        <ele>189.519653</ele>
        <time>2014-04-19T14:45:57Z</time>
      </trkpt>
      <trkpt lat="44.90615" lon="1.14806">
        <ele>167.238998</ele>
        <time>2014-04-19T14:46:29Z</time>
      </trkpt>
      <trkpt lat="44.90622" lon="1.14886">
        <ele>162.666397</ele>
        <time>2014-04-19T14:46:45Z</time>
      </trkpt>
      <trkpt lat="44.90609" lon="1.14958">
        <ele>165.147507</ele>
        <time>2014-04-19T14:47:10Z</time>
      </trkpt>
      <trkpt lat="44.90639" lon="1.14973">
        <ele>168.155624</ele>
        <time>2014-04-19T14:47:39Z</time>
      </trkpt>
      <trkpt lat="44.90655" lon="1.15001">
        <ele>171.602722</ele>
        <time>2014-04-19T14:48:06Z</time>
      </trkpt>
      <trkpt lat="44.90666" lon="1.15027">
        <ele>174.944382</ele>
        <time>2014-04-19T14:48:33Z</time>
      </trkpt>
      <trkpt lat="44.9067" lon="1.15032">
        <ele>175.505096</ele>
        <time>2014-04-19T14:48:37Z</time>
      </trkpt>
      <trkpt lat="44.90683" lon="1.15037">
        <ele>176.499054</ele>
        <time>2014-04-19T14:48:47Z</time>
      </trkpt>
      <trkpt lat="44.90697" lon="1.15009">
        <ele>177.716629</ele>
        <time>2014-04-19T14:49:21Z</time>
      </trkpt>
      <trkpt lat="44.90709" lon="1.14985">
        <ele>180.718185</ele>
        <time>2014-04-19T14:49:37Z</time>
      </trkpt>
      <trkpt lat="44.90753" lon="1.1487">
        <ele>189.009995</ele>
        <time>2014-04-19T14:50:53Z</time>
      </trkpt>
      <trkpt lat="44.90775" lon="1.14879">
        <ele>194.902496</ele>
        <time>2014-04-19T14:51:21Z</time>
      </trkpt>
      <trkpt lat="44.90765" lon="1.14921">
        <ele>194.945007</ele>
        <time>2014-04-19T14:51:39Z</time>
      </trkpt>
      <trkpt lat="44.90774" lon="1.14998">
        <ele>199.622498</ele>
        <time>2014-04-19T14:52:11Z</time>
      </trkpt>
      <trkpt lat="44.90783" lon="1.15022">
        <ele>201.173752</ele>
        <time>2014-04-19T14:52:28Z</time>
      </trkpt>
      <trkpt lat="44.9083" lon="1.15055">
        <ele>209.156265</ele>
        <time>2014-04-19T14:53:15Z</time>
      </trkpt>
      <trkpt lat="44.90866" lon="1.1504">
        <ele>216.025269</ele>
        <time>2014-04-19T14:53:54Z</time>
      </trkpt>
      <trkpt lat="44.90894" lon="1.15012">
        <ele>219.579575</ele>
        <time>2014-04-19T14:54:21Z</time>
      </trkpt>
      <trkpt lat="44.90929" lon="1.15062">
        <ele>221.798584</ele>
        <time>2014-04-19T14:54:56Z</time>
      </trkpt>
      <trkpt lat="44.90962" lon="1.15206">
        <ele>223.652496</ele>
        <time>2014-04-19T14:55:46Z</time>
      </trkpt>
      <trkpt lat="44.90955" lon="1.15274">
        <ele>225.036407</ele>
        <time>2014-04-19T14:56:03Z</time>
      </trkpt>
      <trkpt lat="44.90934" lon="1.15381">
        <ele>226.601364</ele>
        <time>2014-04-19T14:56:28Z</time>
      </trkpt>
      <trkpt lat="44.90945" lon="1.15376">
        <ele>225.482803</ele>
        <time>2014-04-19T14:56:32Z</time>
      </trkpt>
      <trkpt lat="44.9099" lon="1.15335">
        <ele>222.170105</ele>
        <time>2014-04-19T14:56:46Z</time>
      </trkpt>
      <trkpt lat="44.91032" lon="1.15327">
        <ele>216.595444</ele>
        <time>2014-04-19T14:56:56Z</time>
      </trkpt>
      <trkpt lat="44.91163" lon="1.15349">
        <ele>200.162506</ele>
        <time>2014-04-19T14:57:30Z</time>
      </trkpt>
      <trkpt lat="44.91296" lon="1.15329">
        <ele>171.582718</ele>
        <time>2014-04-19T14:58:11Z</time>
      </trkpt>
      <trkpt lat="44.91295" lon="1.15341">
        <ele>172.813171</ele>
        <time>2014-04-19T14:58:17Z</time>
      </trkpt>
      <trkpt lat="44.91349" lon="1.15316">
        <ele>160.604996</ele>
        <time>2014-04-19T14:58:30Z</time>
      </trkpt>
      <trkpt lat="44.91367" lon="1.15325">
        <ele>158.860001</ele>
        <time>2014-04-19T14:58:37Z</time>
      </trkpt>
      <trkpt lat="44.91381" lon="1.15352">
        <ele>158.6875</ele>
        <time>2014-04-19T14:58:47Z</time>
      </trkpt>
      <trkpt lat="44.91376" lon="1.15381">
        <ele>159.292664</ele>
        <time>2014-04-19T14:58:56Z</time>
      </trkpt>
      <trkpt lat="44.91309" lon="1.15514">
        <ele>161.556915</ele>
        <time>2014-04-19T14:59:40Z</time>
      </trkpt>
      <trkpt lat="44.913" lon="1.15546">
        <ele>161.876648</ele>
        <time>2014-04-19T14:59:52Z</time>
      </trkpt>
      <trkpt lat="44.91261" lon="1.15646">
        <ele>162.870377</ele>
        <time>2014-04-19T15:00:16Z</time>
      </trkpt>
      <trkpt lat="44.91228" lon="1.15806">
        <ele>165.652451</ele>
        <time>2014-04-19T15:01:24Z</time>
      </trkpt>
      <trkpt lat="44.91157" lon="1.15892">
        <ele>169.466904</ele>
        <time>2014-04-19T15:01:54Z</time>
      </trkpt>
      <trkpt lat="44.9109" lon="1.15958">
        <ele>174.350159</ele>
        <time>2014-04-19T15:02:38Z</time>
      </trkpt>
      <trkpt lat="44.91082" lon="1.15976">
        <ele>174.978439</ele>
        <time>2014-04-19T15:02:44Z</time>
      </trkpt>
      <trkpt lat="44.91074" lon="1.16132">
        <ele>176.080933</ele>
        <time>2014-04-19T15:03:56Z</time>
      </trkpt>
      <trkpt lat="44.91066" lon="1.16168">
        <ele>176.402863</ele>
        <time>2014-04-19T15:04:15Z</time>
      </trkpt>
      <trkpt lat="44.90998" lon="1.16208">
        <ele>178.082077</ele>
        <time>2014-04-19T15:04:56Z</time>
      </trkpt>
      <trkpt lat="44.90961" lon="1.16244">
        <ele>177.483002</ele>
        <time>2014-04-19T15:05:19Z</time>
      </trkpt>
      <trkpt lat="44.90946" lon="1.16283">
        <ele>177.433334</ele>
        <time>2014-04-19T15:05:31Z</time>
      </trkpt>
      <trkpt lat="44.90939" lon="1.16491">
        <ele>183.695007</ele>
        <time>2014-04-19T15:06:49Z</time>
      </trkpt>
      <trkpt lat="44.9094" lon="1.16519">
        <ele>184.457504</ele>
        <time>2014-04-19T15:06:59Z</time>
      </trkpt>
      <trkpt lat="44.90954" lon="1.16639">
        <ele>183.013199</ele>
        <time>2014-04-19T15:07:39Z</time>
      </trkpt>
      <trkpt lat="44.90957" lon="1.16682">
        <ele>180.295502</ele>
        <time>2014-04-19T15:07:59Z</time>
      </trkpt>
      <trkpt lat="44.90944" lon="1.16706">
        <ele>179.907806</ele>
        <time>2014-04-19T15:08:10Z</time>
      </trkpt>
      <trkpt lat="44.909" lon="1.16784">
        <ele>180.066772</ele>
        <time>2014-04-19T15:08:46Z</time>
      </trkpt>
      <trkpt lat="44.9087" lon="1.1692">
        <ele>180.757507</ele>
        <time>2014-04-19T15:09:27Z</time>
      </trkpt>
      <trkpt lat="44.90885" lon="1.17096">
        <ele>183.140259</ele>
        <time>2014-04-19T15:10:23Z</time>
      </trkpt>
      <trkpt lat="44.90848" lon="1.17141">
        <ele>184.901505</ele>
        <time>2014-04-19T15:10:55Z</time>
      </trkpt>
      <trkpt lat="44.90836" lon="1.17152">
        <ele>188.065659</ele>
        <time>2014-04-19T15:11:06Z</time>
      </trkpt>
      <trkpt lat="44.9081" lon="1.17175">
        <ele>192.107559</ele>
        <time>2014-04-19T15:11:33Z</time>
      </trkpt>
      <trkpt lat="44.90771" lon="1.17206">
        <ele>198.063675</ele>
        <time>2014-04-19T15:12:00Z</time>
      </trkpt>
      <trkpt lat="44.90728" lon="1.1728">
        <ele>202.182693</ele>
        <time>2014-04-19T15:12:51Z</time>
      </trkpt>
      <trkpt lat="44.90717" lon="1.17314">
        <ele>201.645004</ele>
        <time>2014-04-19T15:13:06Z</time>
      </trkpt>
      <trkpt lat="44.90698" lon="1.17343">
        <ele>202.548996</ele>
        <time>2014-04-19T15:13:23Z</time>
      </trkpt>
      <trkpt lat="44.90696" lon="1.174">
        <ele>200.060181</ele>
        <time>2014-04-19T15:13:34Z</time>
      </trkpt>
      <trkpt lat="44.90671" lon="1.17709">
        <ele>197.924026</ele>
        <time>2014-04-19T15:14:57Z</time>
      </trkpt>
      <trkpt lat="44.90655" lon="1.17767">
        <ele>199.020523</ele>
        <time>2014-04-19T15:15:25Z</time>
      </trkpt>
      <trkpt lat="44.90615" lon="1.17824">
        <ele>200.421249</ele>
        <time>2014-04-19T15:16:04Z</time>
      </trkpt>
      <trkpt lat="44.90527" lon="1.17883">
        <ele>203.572495</ele>
        <time>2014-04-19T15:16:57Z</time>
      </trkpt>
      <trkpt lat="44.90451" lon="1.18024">
        <ele>208.841003</ele>
        <time>2014-04-19T15:19:20Z</time>
      </trkpt>
      <trkpt lat="44.90553" lon="1.18079">
        <ele>211.569717</ele>
        <time>2014-04-19T15:21:30Z</time>
      </trkpt>
      <trkpt lat="44.90535" lon="1.18172">
        <ele>218.581268</ele>
        <time>2014-04-19T15:22:27Z</time>
      </trkpt>
      <trkpt lat="44.90536" lon="1.18226">
        <ele>223.173752</ele>
        <time>2014-04-19T15:22:58Z</time>
      </trkpt>
      <trkpt lat="44.90543" lon="1.18287">
        <ele>225.985001</ele>
        <time>2014-04-19T15:23:32Z</time>
      </trkpt>
      <trkpt lat="44.90557" lon="1.18315">
        <ele>226.464935</ele>
        <time>2014-04-19T15:23:51Z</time>
      </trkpt>
      <trkpt lat="44.90577" lon="1.18326">
        <ele>228.38707</ele>
        <time>2014-04-19T15:24:08Z</time>
      </trkpt>
      <trkpt lat="44.90582" lon="1.18307">
        <ele>230.330673</ele>
        <time>2014-04-19T15:24:19Z</time>
      </trkpt>
      <trkpt lat="44.90594" lon="1.18272">
        <ele>233.061172</ele>
        <time>2014-04-19T15:24:39Z</time>
      </trkpt>
      <trkpt lat="44.90615" lon="1.18253">
        <ele>234.854996</ele>
        <time>2014-04-19T15:24:54Z</time>
      </trkpt>
      <trkpt lat="44.90659" lon="1.18284">
        <ele>240.722137</ele>
        <time>2014-04-19T15:25:27Z</time>
      </trkpt>
      <trkpt lat="44.90715" lon="1.18393">
        <ele>242.002502</ele>
        <time>2014-04-19T15:26:13Z</time>
      </trkpt>
      <trkpt lat="44.90802" lon="1.1847">
        <ele>245.230591</ele>
        <time>2014-04-19T15:26:49Z</time>
      </trkpt>
      <trkpt lat="44.90848" lon="1.18528">
        <ele>248.545303</ele>
        <time>2014-04-19T15:27:10Z</time>
      </trkpt>
      <trkpt lat="44.90863" lon="1.18606">
        <ele>250.113754</ele>
        <time>2014-04-19T15:27:30Z</time>
      </trkpt>
      <trkpt lat="44.9085" lon="1.18669">
        <ele>250.255234</ele>
        <time>2014-04-19T15:27:46Z</time>
      </trkpt>
      <trkpt lat="44.90816" lon="1.1872">
        <ele>249.69165</ele>
        <time>2014-04-19T15:28:03Z</time>
      </trkpt>
      <trkpt lat="44.90723" lon="1.18772">
        <ele>253.631836</ele>
        <time>2014-04-19T15:28:37Z</time>
      </trkpt>
      <trkpt lat="44.90661" lon="1.1887">
        <ele>255.207016</ele>
        <time>2014-04-19T15:29:04Z</time>
      </trkpt>
      <trkpt lat="44.90653" lon="1.18891">
        <ele>255.867508</ele>
        <time>2014-04-19T15:29:08Z</time>
      </trkpt>
      <trkpt lat="44.90625" lon="1.18942">
        <ele>254.986023</ele>
        <time>2014-04-19T15:29:19Z</time>
      </trkpt>
      <trkpt lat="44.90569" lon="1.18991">
        <ele>254.336395</ele>
        <time>2014-04-19T15:29:35Z</time>
      </trkpt>
      <trkpt lat="44.90678" lon="1.19066">
        <ele>264.316589</ele>
        <time>2014-04-19T15:30:51Z</time>
      </trkpt>
      <trkpt lat="44.90702" lon="1.19075">
        <ele>264.992401</ele>
        <time>2014-04-19T15:31:06Z</time>
      </trkpt>
      <trkpt lat="44.90742" lon="1.19076">
        <ele>264.497314</ele>
        <time>2014-04-19T15:31:38Z</time>
      </trkpt>
      <trkpt lat="44.90767" lon="1.19098">
        <ele>263.638763</ele>
        <time>2014-04-19T15:31:50Z</time>
      </trkpt>
      <trkpt lat="44.9081" lon="1.19099">
        <ele>263.045929</ele>
        <time>2014-04-19T15:31:59Z</time>
      </trkpt>
      <trkpt lat="44.90851" lon="1.19111">
        <ele>262.443359</ele>
        <time>2014-04-19T15:32:22Z</time>
      </trkpt>
      <trkpt lat="44.9087" lon="1.19101">
        <ele>262.231262</ele>
        <time>2014-04-19T15:32:34Z</time>
      </trkpt>
      <trkpt lat="44.90882" lon="1.19061">
        <ele>261.321259</ele>
        <time>2014-04-19T15:32:44Z</time>
      </trkpt>
      <trkpt lat="44.90902" lon="1.1896">
        <ele>260.115601</ele>
        <time>2014-04-19T15:32:59Z</time>
      </trkpt>
      <trkpt lat="44.90937" lon="1.18872">
        <ele>259.862305</ele>
        <time>2014-04-19T15:33:11Z</time>
      </trkpt>
      <trkpt lat="44.90948" lon="1.1885">
        <ele>259.38031</ele>
        <time>2014-04-19T15:33:14Z</time>
      </trkpt>
      <trkpt lat="44.90973" lon="1.18564">
        <ele>262.157501</ele>
        <time>2014-04-19T15:34:35Z</time>
      </trkpt>
      <trkpt lat="44.9101" lon="1.18476">
        <ele>262.991455</ele>
        <time>2014-04-19T15:35:00Z</time>
      </trkpt>
      <trkpt lat="44.91047" lon="1.18426">
        <ele>261.006561</ele>
        <time>2014-04-19T15:35:10Z</time>
      </trkpt>
      <trkpt lat="44.91052" lon="1.18402">
        <ele>260.088684</ele>
        <time>2014-04-19T15:35:13Z</time>
      </trkpt>
      <trkpt lat="44.91058" lon="1.1837">
        <ele>259.256348</ele>
        <time>2014-04-19T15:35:17Z</time>
      </trkpt>
      <trkpt lat="44.911" lon="1.18271">
        <ele>255.928757</ele>
        <time>2014-04-19T15:35:30Z</time>
      </trkpt>
      <trkpt lat="44.91129" lon="1.18238">
        <ele>255.036255</ele>
        <time>2014-04-19T15:35:37Z</time>
      </trkpt>
      <trkpt lat="44.91156" lon="1.18236">
        <ele>252.77475</ele>
        <time>2014-04-19T15:35:43Z</time>
      </trkpt>
      <trkpt lat="44.91256" lon="1.18206">
        <ele>240.471451</ele>
        <time>2014-04-19T15:36:04Z</time>
      </trkpt>
      <trkpt lat="44.91322" lon="1.1819">
        <ele>235.529999</ele>
        <time>2014-04-19T15:36:14Z</time>
      </trkpt>
      <trkpt lat="44.91439" lon="1.1821">
        <ele>226.37117</ele>
        <time>2014-04-19T15:36:35Z</time>
      </trkpt>
      <trkpt lat="44.91466" lon="1.18249">
        <ele>229.230576</ele>
        <time>2014-04-19T15:36:47Z</time>
      </trkpt>
      <trkpt lat="44.91485" lon="1.18319">
        <ele>231.891418</ele>
        <time>2014-04-19T15:37:09Z</time>
      </trkpt>
      <trkpt lat="44.91555" lon="1.18394">
        <ele>221.716873</ele>
        <time>2014-04-19T15:37:25Z</time>
      </trkpt>
      <trkpt lat="44.91653" lon="1.18495">
        <ele>220.506256</ele>
        <time>2014-04-19T15:37:54Z</time>
      </trkpt>
      <trkpt lat="44.91696" lon="1.18551">
        <ele>218.01973</ele>
        <time>2014-04-19T15:38:08Z</time>
      </trkpt>
      <trkpt lat="44.9172" lon="1.1845">
        <ele>210.19548</ele>
        <time>2014-04-19T15:38:26Z</time>
      </trkpt>
      <trkpt lat="44.91732" lon="1.18344">
        <ele>207.938065</ele>
        <time>2014-04-19T15:38:38Z</time>
      </trkpt>
      <trkpt lat="44.91765" lon="1.18383">
        <ele>214.438751</ele>
        <time>2014-04-19T15:38:58Z</time>
      </trkpt>
      <trkpt lat="44.91766" lon="1.18485">
        <ele>215.171463</ele>
        <time>2014-04-19T15:39:26Z</time>
      </trkpt>
      <trkpt lat="44.91811" lon="1.18588">
        <ele>217.316803</ele>
        <time>2014-04-19T15:40:05Z</time>
      </trkpt>
      <trkpt lat="44.9182" lon="1.1871">
        <ele>216.872543</ele>
        <time>2014-04-19T15:40:39Z</time>
      </trkpt>
      <trkpt lat="44.91841" lon="1.18786">
        <ele>219.673752</ele>
        <time>2014-04-19T15:41:07Z</time>
      </trkpt>
      <trkpt lat="44.9185" lon="1.18831">
        <ele>220.435257</ele>
        <time>2014-04-19T15:41:20Z</time>
      </trkpt>
      <trkpt lat="44.91854" lon="1.18958">
        <ele>224.135345</ele>
        <time>2014-04-19T15:42:00Z</time>
      </trkpt>
      <trkpt lat="44.91852" lon="1.19009">
        <ele>226.704849</ele>
        <time>2014-04-19T15:42:17Z</time>
      </trkpt>
      <trkpt lat="44.91899" lon="1.19132">
        <ele>230.6884</ele>
        <time>2014-04-19T15:43:07Z</time>
      </trkpt>
      <trkpt lat="44.91935" lon="1.19189">
        <ele>232.224762</ele>
        <time>2014-04-19T15:43:40Z</time>
      </trkpt>
      <trkpt lat="44.91978" lon="1.1916">
        <ele>234.113724</ele>
        <time>2014-04-19T15:44:12Z</time>
      </trkpt>
      <trkpt lat="44.91976" lon="1.19099">
        <ele>234.799728</ele>
        <time>2014-04-19T15:44:39Z</time>
      </trkpt>
      <trkpt lat="44.92005" lon="1.19023">
        <ele>241.931686</ele>
        <time>2014-04-19T15:45:30Z</time>
      </trkpt>
      <trkpt lat="44.92024" lon="1.18985">
        <ele>245.027496</ele>
        <time>2014-04-19T15:45:57Z</time>
      </trkpt>
      <trkpt lat="44.92062" lon="1.18979">
        <ele>251.722778</ele>
        <time>2014-04-19T15:47:38Z</time>
      </trkpt>
      <trkpt lat="44.92069" lon="1.19026">
        <ele>253.669296</ele>
        <time>2014-04-19T15:48:11Z</time>
      </trkpt>
      <trkpt lat="44.92088" lon="1.19042">
        <ele>256.894165</ele>
        <time>2014-04-19T15:48:37Z</time>
      </trkpt>
      <trkpt lat="44.92203" lon="1.1906">
        <ele>272.91571</ele>
        <time>2014-04-19T15:51:20Z</time>
      </trkpt>
      <trkpt lat="44.92336" lon="1.18948">
        <ele>283.87561</ele>
        <time>2014-04-19T15:53:18Z</time>
      </trkpt>
      <trkpt lat="44.9236" lon="1.18844">
        <ele>288.63092</ele>
        <time>2014-04-19T15:54:17Z</time>
      </trkpt>
      <trkpt lat="44.92381" lon="1.18847">
        <ele>289.103119</ele>
        <time>2014-04-19T15:54:34Z</time>
      </trkpt>
      <trkpt lat="44.92408" lon="1.18851">
        <ele>289.305634</ele>
        <time>2014-04-19T15:54:50Z</time>
      </trkpt>
      <trkpt lat="44.9241" lon="1.18888">
        <ele>286.757507</ele>
        <time>2014-04-19T15:55:08Z</time>
      </trkpt>
      <trkpt lat="44.92411" lon="1.18889">
        <ele>286.70874</ele>
        <time>2014-04-19T15:55:17Z</time>
      </trkpt>
    </trkseg>
  </trk>
</gpx>